Observation data for Dozier on 10/18/2019      Previous  Date       Current Mesonet Observations  Soil Data  Daily Summary Page  Observations in Plain Language
KDO1 180500Z 14007KT 16/M00 A2984 RMK A01 T01551001  RH  034%=      5-min Rain = 0
KDO1 180501Z 15007KT 16/M00 A2984 RMK A01 T01551001  RH  035%=      5-min Rain = 0
KDO1 180502Z 15007KT 16/M00 A2984 RMK A01 T01551001  RH  035%=      5-min Rain = 0
KDO1 180503Z 15006KT 16/00 A2984 RMK A01 T015500-0  RH  035%=      5-min Rain = 0
KDO1 180504Z 15006KT 16/00 A2984 RMK A01 T01550000  RH  035%=      5-min Rain = 0
KDO1 180505Z 15006KT 15/00 A2984 RMK A01 T01540000  RH  035%=      5-min Rain = 0
KDO1 180506Z 15006KT 15/00 A2984 RMK A01 T01540000  RH  035%=      5-min Rain = 0
KDO1 180507Z 16006KT 15/00 A2984 RMK A01 T01540000  RH  035%=      5-min Rain = 0
KDO1 180508Z 16006KT 15/00 A2984 RMK A01 T01540000  RH  035%=      5-min Rain = 0
KDO1 180509Z 15005KT 15/00 A2984 RMK A01 T01530000  RH  035%=      5-min Rain = 0
KDO1 180510Z 16005KT 15/00 A2984 RMK A01 T01530001  RH  035%=      5-min Rain = 0
KDO1 180511Z 16005KT 15/00 A2984 RMK A01 T01530001  RH  035%=      5-min Rain = 0
KDO1 180512Z 16005KT 15/00 A2984 RMK A01 T01520000  RH  035%=      5-min Rain = 0
KDO1 180513Z 16006KT 15/00 A2984 RMK A01 T01510000  RH  036%=      5-min Rain = 0
KDO1 180514Z 16006KT 15/00 A2984 RMK A01 T01510000  RH  036%=      5-min Rain = 0
KDO1 180515Z 16006KT 15/00 A2984 RMK A01 T01510000  RH  036%=      5-min Rain = 0
KDO1 180516Z 16006KT 15/00 A2984 RMK A01 T01510000  RH  036%=      5-min Rain = 0
KDO1 180517Z 16006KT 15/00 A2984 RMK A01 T015100-0  RH  036%=      5-min Rain = 0
KDO1 180518Z 16006KT 15/00 A2984 RMK A01 T01500000  RH  036%=      5-min Rain = 0
KDO1 180519Z 16006KT 15/00 A2984 RMK A01 T015000-0  RH  036%=      5-min Rain = 0
KDO1 180520Z 15007KT 15/00 A2984 RMK A01 T015000-0  RH  036%=      5-min Rain = 0
KDO1 180521Z 16006KT 15/00 A2984 RMK A01 T01500000  RH  036%=      5-min Rain = 0
KDO1 180522Z 16005KT 15/00 A2984 RMK A01 T01500000  RH  036%=      5-min Rain = 0
KDO1 180523Z 16006KT 15/00 A2984 RMK A01 T01500000  RH  036%=      5-min Rain = 0
KDO1 180524Z 16006KT 15/00 A2984 RMK A01 T01490000  RH  036%=      5-min Rain = 0
KDO1 180525Z 16006KT 15/00 A2984 RMK A01 T01490000  RH  036%=      5-min Rain = 0
KDO1 180526Z 16005KT 15/00 A2984 RMK A01 T01490000  RH  036%=      5-min Rain = 0
KDO1 180527Z 16005KT 15/00 A2984 RMK A01 T01490001  RH  036%=      5-min Rain = 0
KDO1 180528Z 16005KT 15/00 A2984 RMK A01 T01490000  RH  036%=      5-min Rain = 0
KDO1 180529Z 15007KT 15/00 A2984 RMK A01 T01480000  RH  036%=      5-min Rain = 0
KDO1 180530Z 15006KT 15/00 A2984 RMK A01 T01490001  RH  036%=      5-min Rain = 0
KDO1 180531Z 16006KT 15/00 A2984 RMK A01 T01480000  RH  036%=      5-min Rain = 0
KDO1 180532Z 16006KT 15/00 A2984 RMK A01 T01480000  RH  036%=      5-min Rain = 0
KDO1 180533Z 16005KT 15/00 A2984 RMK A01 T01480001  RH  036%=      5-min Rain = 0
KDO1 180534Z 16006KT 15/00 A2984 RMK A01 T01480001  RH  036%=      5-min Rain = 0
KDO1 180535Z 16007KT 15/00 A2984 RMK A01 T01480000  RH  037%=      5-min Rain = 0
KDO1 180536Z 16006KT 15/00 A2984 RMK A01 T01480000  RH  037%=      5-min Rain = 0
KDO1 180537Z 16005KT 15/00 A2984 RMK A01 T01480001  RH  037%=      5-min Rain = 0
KDO1 180538Z 16005KT 15/00 A2984 RMK A01 T01470000  RH  037%=      5-min Rain = 0
KDO1 180539Z 16006KT 15/00 A2984 RMK A01 T01460000  RH  037%=      5-min Rain = 0
KDO1 180540Z 16006KT 15/00 A2984 RMK A01 T01460000  RH  037%=      5-min Rain = 0
KDO1 180541Z 16006KT 15/00 A2984 RMK A01 T01460000  RH  037%=      5-min Rain = 0
KDO1 180542Z 16005KT 15/00 A2984 RMK A01 T01460000  RH  037%=      5-min Rain = 0
KDO1 180543Z 16006KT 15/00 A2984 RMK A01 T01460000  RH  037%=      5-min Rain = 0
KDO1 180544Z 17005KT 15/00 A2984 RMK A01 T01460000  RH  037%=      5-min Rain = 0
KDO1 180545Z 16005KT 15/00 A2984 RMK A01 T01460000  RH  037%=      5-min Rain = 0
KDO1 180546Z 17005KT 15/00 A2984 RMK A01 T01460000  RH  037%=      5-min Rain = 0
KDO1 180547Z 17006KT 15/00 A2984 RMK A01 T01470000  RH  037%=      5-min Rain = 0
KDO1 180548Z 17006KT 15/00 A2984 RMK A01 T01470000  RH  037%=      5-min Rain = 0
KDO1 180549Z 17006KT 15/00 A2984 RMK A01 T01470000  RH  037%=      5-min Rain = 0
KDO1 180550Z 17006KT 15/00 A2984 RMK A01 T01470000  RH  037%=      5-min Rain = 0
KDO1 180551Z 17006KT 15/00 A2984 RMK A01 T014700-0  RH  037%=      5-min Rain = 0
KDO1 180552Z 17005KT 15/00 A2984 RMK A01 T01470000  RH  036%=      5-min Rain = 0
KDO1 180553Z 17006KT 15/00 A2984 RMK A01 T014700-0  RH  037%=      5-min Rain = 0
KDO1 180554Z 16006KT 15/00 A2984 RMK A01 T014600-0  RH  037%=      5-min Rain = 0
KDO1 180555Z 17006KT 15/00 A2984 RMK A01 T014600-0  RH  037%=      5-min Rain = 0
KDO1 180556Z 17007KT 15/00 A2984 RMK A01 T014500-0  RH  037%=      5-min Rain = 0
KDO1 180557Z 17006KT 15/00 A2984 RMK A01 T014500-0  RH  037%=      5-min Rain = 0
KDO1 180558Z 17006KT 15/M00 A2984 RMK A01 T01451001  RH  037%=      5-min Rain = 0
KDO1 180559Z 16006KT 15/00 A2984 RMK A01 T014500-0  RH  037%=      5-min Rain = 0
KDO1 180600Z 16006KT 15/M00 A2984 RMK A01 T01451001  RH  037%=      5-min Rain = 0
KDO1 180601Z 17007KT 15/00 A2984 RMK A01 T014500-0  RH  037%=      5-min Rain = 0
KDO1 180602Z 17007KT 15/M00 A2984 RMK A01 T01451001  RH  037%=      5-min Rain = 0
KDO1 180603Z 16006KT 15/M00 A2984 RMK A01 T01451001  RH  037%=      5-min Rain = 0
KDO1 180604Z 17006KT 15/M00 A2984 RMK A01 T01451001  RH  037%=      5-min Rain = 0
KDO1 180605Z 16006KT 15/M00 A2984 RMK A01 T01451001  RH  037%=      5-min Rain = 0
KDO1 180606Z 17006KT 15/M00 A2984 RMK A01 T01451001  RH  037%=      5-min Rain = 0
KDO1 180607Z 17005KT 15/M00 A2983 RMK A01 T01461001  RH  037%=      5-min Rain = 0
KDO1 180608Z 17007KT 15/M00 A2983 RMK A01 T01461001  RH  037%=      5-min Rain = 0
KDO1 180609Z 17006KT 15/M00 A2983 RMK A01 T01461001  RH  037%=      5-min Rain = 0
KDO1 180610Z 17006KT 15/M00 A2983 RMK A01 T01461001  RH  037%=      5-min Rain = 0
KDO1 180611Z 16006KT 15/M00 A2983 RMK A01 T01461001  RH  037%=      5-min Rain = 0
KDO1 180612Z 16007KT 15/M00 A2983 RMK A01 T01451001  RH  037%=      5-min Rain = 0
KDO1 180613Z 17007KT 15/M00 A2983 RMK A01 T01451001  RH  037%=      5-min Rain = 0
KDO1 180614Z 17007KT 15/M00 A2983 RMK A01 T01451001  RH  037%=      5-min Rain = 0
KDO1 180615Z 17007KT 15/M00 A2983 RMK A01 T01461002  RH  036%=      5-min Rain = 0
KDO1 180616Z 17007KT 15/M00 A2983 RMK A01 T01461002  RH  036%=      5-min Rain = 0
KDO1 180617Z 17008KT 15/M00 A2983 RMK A01 T01461002  RH  036%=      5-min Rain = 0
KDO1 180618Z 17006KT 15/M00 A2983 RMK A01 T01471002  RH  036%=      5-min Rain = 0
KDO1 180619Z 17007KT 15/M00 A2983 RMK A01 T01481002  RH  036%=      5-min Rain = 0
KDO1 180620Z 17007KT 15/M00 A2983 RMK A01 T01481002  RH  036%=      5-min Rain = 0
KDO1 180621Z 17006KT 15/M00 A2983 RMK A01 T01481002  RH  036%=      5-min Rain = 0
KDO1 180622Z 16007KT 15/M00 A2983 RMK A01 T01471002  RH  036%=      5-min Rain = 0
KDO1 180623Z 16008KT 15/M00 A2983 RMK A01 T01461002  RH  036%=      5-min Rain = 0
KDO1 180624Z 16008KT 15/M00 A2983 RMK A01 T01461002  RH  036%=      5-min Rain = 0
KDO1 180625Z 16007KT 15/M00 A2983 RMK A01 T01461002  RH  036%=      5-min Rain = 0
KDO1 180626Z 17007KT 15/M00 A2983 RMK A01 T01471002  RH  036%=      5-min Rain = 0
KDO1 180627Z 16008KT 15/M00 A2983 RMK A01 T01461002  RH  036%=      5-min Rain = 0
KDO1 180628Z 16008KT 15/M00 A2983 RMK A01 T01461002  RH  036%=      5-min Rain = 0
KDO1 180629Z 17009KT 15/M00 A2983 RMK A01 T01461002  RH  036%=      5-min Rain = 0
KDO1 180630Z 17007KT 15/M00 A2983 RMK A01 T01471002  RH  036%=      5-min Rain = 0
KDO1 180631Z 17007KT 15/M00 A2983 RMK A01 T01481002  RH  036%=      5-min Rain = 0
KDO1 180632Z 17007KT 15/M00 A2983 RMK A01 T01471002  RH  036%=      5-min Rain = 0
KDO1 180633Z 16007KT 15/M00 A2983 RMK A01 T01461002  RH  036%=      5-min Rain = 0
KDO1 180634Z 17006KT 15/M00 A2983 RMK A01 T01461002  RH  036%=      5-min Rain = 0
KDO1 180635Z 17006KT 15/M00 A2983 RMK A01 T01451002  RH  037%=      5-min Rain = 0
KDO1 180636Z 17005KT 14/M00 A2983 RMK A01 T01441002  RH  037%=      5-min Rain = 0
KDO1 180637Z 17006KT 14/M00 A2983 RMK A01 T01431002  RH  037%=      5-min Rain = 0
KDO1 180638Z 17005KT 14/M00 A2983 RMK A01 T01431002  RH  037%=      5-min Rain = 0
KDO1 180639Z 17005KT 14/M00 A2983 RMK A01 T01431002  RH  037%=      5-min Rain = 0
KDO1 180640Z 17006KT 14/M00 A2983 RMK A01 T01421002  RH  037%=      5-min Rain = 0
KDO1 180641Z 17006KT 14/M00 A2983 RMK A01 T01401002  RH  038%=      5-min Rain = 0
KDO1 180642Z 17005KT 14/M00 A2983 RMK A01 T01401002  RH  038%=      5-min Rain = 0
KDO1 180643Z 17005KT 14/M00 A2983 RMK A01 T01391003  RH  038%=      5-min Rain = 0
KDO1 180644Z 17005KT 14/M00 A2983 RMK A01 T01381003  RH  038%=      5-min Rain = 0
KDO1 180645Z 17005KT 14/M00 A2983 RMK A01 T01371003  RH  038%=      5-min Rain = 0
KDO1 180646Z 16005KT 14/M00 A2983 RMK A01 T01361003  RH  038%=      5-min Rain = 0
KDO1 180647Z 16005KT 14/M00 A2983 RMK A01 T01361003  RH  039%=      5-min Rain = 0
KDO1 180648Z 16005KT 14/M00 A2983 RMK A01 T01361002  RH  039%=      5-min Rain = 0
KDO1 180649Z 16006KT 14/M00 A2983 RMK A01 T01351002  RH  039%=      5-min Rain = 0
KDO1 180650Z 16005KT 14/M00 A2983 RMK A01 T01351003  RH  039%=      5-min Rain = 0
KDO1 180651Z 16006KT 13/M00 A2983 RMK A01 T01341003  RH  039%=      5-min Rain = 0
KDO1 180652Z 16006KT 13/M00 A2983 RMK A01 T01341003  RH  039%=      5-min Rain = 0
KDO1 180653Z 16006KT 13/M00 A2983 RMK A01 T01341003  RH  039%=      5-min Rain = 0
KDO1 180654Z 15006KT 14/M00 A2983 RMK A01 T01351003  RH  039%=      5-min Rain = 0
KDO1 180655Z 15005KT 14/M00 A2983 RMK A01 T01351002  RH  039%=      5-min Rain = 0
KDO1 180656Z 16006KT 14/M00 A2983 RMK A01 T01351002  RH  039%=      5-min Rain = 0
KDO1 180657Z 16007KT 14/M00 A2983 RMK A01 T01351002  RH  039%=      5-min Rain = 0
KDO1 180658Z 17005KT 14/M00 A2983 RMK A01 T01351002  RH  039%=      5-min Rain = 0
KDO1 180659Z 16004KT 14/M00 A2983 RMK A01 T01361002  RH  039%=      5-min Rain = 0
KDO1 180700Z 16005KT 14/M00 A2983 RMK A01 T01361002  RH  039%=      5-min Rain = 0
KDO1 180701Z 16005KT 14/M00 A2983 RMK A01 T01361002  RH  039%=      5-min Rain = 0
KDO1 180702Z 16006KT 14/M00 A2983 RMK A01 T01351003  RH  039%=      5-min Rain = 0
KDO1 180703Z 16006KT 13/M00 A2983 RMK A01 T01341003  RH  039%=      5-min Rain = 0
KDO1 180704Z 16006KT 13/M00 A2983 RMK A01 T01341002  RH  039%=      5-min Rain = 0
KDO1 180705Z 16006KT 13/M00 A2983 RMK A01 T01341002  RH  039%=      5-min Rain = 0
KDO1 180706Z 16006KT 14/M00 A2983 RMK A01 T01351002  RH  039%=      5-min Rain = 0
KDO1 180707Z 16007KT 14/M00 A2982 RMK A01 T01361002  RH  039%=      5-min Rain = 0
KDO1 180708Z 16005KT 14/M00 A2982 RMK A01 T01361002  RH  039%=      5-min Rain = 0
KDO1 180709Z 16005KT 14/M00 A2982 RMK A01 T01361002  RH  039%=      5-min Rain = 0
KDO1 180710Z 16006KT 14/M00 A2982 RMK A01 T01351002  RH  039%=      5-min Rain = 0
KDO1 180711Z 16006KT 14/M00 A2982 RMK A01 T01351002  RH  039%=      5-min Rain = 0
KDO1 180712Z 16005KT 14/M00 A2982 RMK A01 T01361002  RH  039%=      5-min Rain = 0
KDO1 180713Z 17006KT 14/M00 A2982 RMK A01 T01361002  RH  039%=      5-min Rain = 0
KDO1 180714Z 16006KT 14/M00 A2982 RMK A01 T01361002  RH  039%=      5-min Rain = 0
KDO1 180715Z 17005KT 14/M00 A2982 RMK A01 T01361002  RH  039%=      5-min Rain = 0
KDO1 180716Z 16006KT 14/M00 A2982 RMK A01 T01361002  RH  039%=      5-min Rain = 0
KDO1 180717Z 16005KT 14/M00 A2982 RMK A01 T01351002  RH  039%=      5-min Rain = 0
KDO1 180718Z 16007KT 14/M00 A2982 RMK A01 T01351002  RH  039%=      5-min Rain = 0
KDO1 180719Z 16006KT 14/M00 A2982 RMK A01 T01351002  RH  039%=      5-min Rain = 0
KDO1 180720Z 17006KT 14/M00 A2982 RMK A01 T01361002  RH  039%=      5-min Rain = 0
KDO1 180721Z 17006KT 14/M00 A2982 RMK A01 T01371002  RH  039%=      5-min Rain = 0
KDO1 180722Z 17006KT 14/M00 A2982 RMK A01 T01371002  RH  039%=      5-min Rain = 0
KDO1 180723Z 17005KT 14/M00 A2982 RMK A01 T01361002  RH  039%=      5-min Rain = 0
KDO1 180724Z 16005KT 14/M00 A2982 RMK A01 T01361002  RH  039%=      5-min Rain = 0
KDO1 180725Z 16006KT 14/M00 A2982 RMK A01 T01361002  RH  039%=      5-min Rain = 0
KDO1 180726Z 17007KT 14/M00 A2982 RMK A01 T01361002  RH  039%=      5-min Rain = 0
KDO1 180727Z 17007KT 14/M00 A2982 RMK A01 T01361002  RH  039%=      5-min Rain = 0
KDO1 180728Z 17006KT 14/M00 A2982 RMK A01 T01371002  RH  038%=      5-min Rain = 0
KDO1 180729Z 19005KT 14/M00 A2982 RMK A01 T01371002  RH  038%=      5-min Rain = 0
KDO1 180730Z 18007KT 14/M00 A2982 RMK A01 T01371002  RH  038%=      5-min Rain = 0
KDO1 180731Z 18007KT 14/M00 A2982 RMK A01 T01371002  RH  039%=      5-min Rain = 0
KDO1 180732Z 18005KT 14/M00 A2982 RMK A01 T01361002  RH  039%=      5-min Rain = 0
KDO1 180733Z 19004KT 14/M00 A2982 RMK A01 T01361002  RH  039%=      5-min Rain = 0
KDO1 180734Z 18006KT 14/M00 A2982 RMK A01 T01351002  RH  039%=      5-min Rain = 0
KDO1 180735Z 18006KT 13/M00 A2982 RMK A01 T01341002  RH  039%=      5-min Rain = 0
KDO1 180736Z 18007KT 13/M00 A2982 RMK A01 T01331002  RH  039%=      5-min Rain = 0
KDO1 180737Z 19007KT 13/M00 A2982 RMK A01 T01341002  RH  039%=      5-min Rain = 0
KDO1 180738Z 17007KT 13/M00 A2982 RMK A01 T01331002  RH  039%=      5-min Rain = 0
KDO1 180739Z 18006KT 13/M00 A2982 RMK A01 T01341002  RH  039%=      5-min Rain = 0
KDO1 180740Z 18007KT 14/M00 A2982 RMK A01 T01351002  RH  039%=      5-min Rain = 0
KDO1 180741Z 18007KT 14/M00 A2982 RMK A01 T01351003  RH  039%=      5-min Rain = 0
KDO1 180742Z 17009KT 14/M00 A2982 RMK A01 T01351003  RH  039%=      5-min Rain = 0
KDO1 180743Z 18008KT 14/M00 A2982 RMK A01 T01351002  RH  039%=      5-min Rain = 0
KDO1 180744Z 18009KT 14/M00 A2982 RMK A01 T01361003  RH  039%=      5-min Rain = 0
KDO1 180745Z 18008KT 14/M00 A2982 RMK A01 T01381003  RH  038%=      5-min Rain = 0
KDO1 180746Z 18007KT 14/M00 A2982 RMK A01 T01391002  RH  038%=      5-min Rain = 0
KDO1 180747Z 19009KT 14/M00 A2982 RMK A01 T01391002  RH  038%=      5-min Rain = 0
KDO1 180748Z 18008KT 14/M00 A2982 RMK A01 T01391002  RH  038%=      5-min Rain = 0
KDO1 180749Z 18008KT 14/M00 A2982 RMK A01 T01391002  RH  038%=      5-min Rain = 0
KDO1 180750Z 18007KT 14/M00 A2982 RMK A01 T01381003  RH  038%=      5-min Rain = 0
KDO1 180751Z 18007KT 14/M00 A2982 RMK A01 T01371002  RH  038%=      5-min Rain = 0
KDO1 180752Z 17007KT 14/M00 A2982 RMK A01 T01371003  RH  038%=      5-min Rain = 0
KDO1 180753Z 18008KT 14/M00 A2982 RMK A01 T01371002  RH  038%=      5-min Rain = 0
KDO1 180754Z 18010KT 14/M00 A2982 RMK A01 T01371003  RH  038%=      5-min Rain = 0
KDO1 180755Z 18011KT 14/M00 A2982 RMK A01 T01381002  RH  038%=      5-min Rain = 0
KDO1 180756Z 18008KT 14/M00 A2982 RMK A01 T01401002  RH  038%=      5-min Rain = 0
KDO1 180757Z 18007KT 14/M00 A2982 RMK A01 T01401002  RH  038%=      5-min Rain = 0
KDO1 180758Z 18008KT 14/M00 A2982 RMK A01 T01401002  RH  038%=      5-min Rain = 0
KDO1 180759Z 17008KT 14/M00 A2982 RMK A01 T01391002  RH  038%=      5-min Rain = 0
KDO1 180800Z 18008KT 14/M00 A2982 RMK A01 T01391002  RH  038%=      5-min Rain = 0
KDO1 180801Z 18007KT 14/M00 A2982 RMK A01 T01381002  RH  038%=      5-min Rain = 0
KDO1 180802Z 17007KT 14/M00 A2982 RMK A01 T01381002  RH  038%=      5-min Rain = 0
KDO1 180803Z 18008KT 14/M00 A2982 RMK A01 T01371003  RH  038%=      5-min Rain = 0
KDO1 180804Z 17008KT 14/M00 A2982 RMK A01 T01371002  RH  038%=      5-min Rain = 0
KDO1 180805Z 18007KT 14/M00 A2982 RMK A01 T01381002  RH  038%=      5-min Rain = 0
KDO1 180806Z 18007KT 14/M00 A2982 RMK A01 T01381002  RH  038%=      5-min Rain = 0
KDO1 180807Z 17006KT 14/M00 A2982 RMK A01 T01371003  RH  038%=      5-min Rain = 0
KDO1 180808Z 17007KT 14/M00 A2982 RMK A01 T01361003  RH  039%=      5-min Rain = 0
KDO1 180809Z 17007KT 14/M00 A2981 RMK A01 T01351003  RH  039%=      5-min Rain = 0
KDO1 180810Z 17007KT 14/M00 A2981 RMK A01 T01351002  RH  039%=      5-min Rain = 0
KDO1 180811Z 17006KT 13/M00 A2981 RMK A01 T01341002  RH  039%=      5-min Rain = 0
KDO1 180812Z 17006KT 13/M00 A2981 RMK A01 T01341002  RH  039%=      5-min Rain = 0
KDO1 180813Z 17005KT 13/M00 A2981 RMK A01 T01341002  RH  039%=      5-min Rain = 0
KDO1 180814Z 17006KT 13/M00 A2981 RMK A01 T01331002  RH  039%=      5-min Rain = 0
KDO1 180815Z 17006KT 13/M00 A2981 RMK A01 T01331002  RH  039%=      5-min Rain = 0
KDO1 180816Z 17007KT 13/M00 A2981 RMK A01 T01321003  RH  040%=      5-min Rain = 0
KDO1 180817Z 17006KT 13/M00 A2981 RMK A01 T01321003  RH  040%=      5-min Rain = 0
KDO1 180818Z 17006KT 13/M00 A2981 RMK A01 T01331002  RH  039%=      5-min Rain = 0
KDO1 180819Z 17006KT 13/M00 A2981 RMK A01 T01331003  RH  039%=      5-min Rain = 0
KDO1 180820Z 17006KT 13/M00 A2981 RMK A01 T01331002  RH  039%=      5-min Rain = 0
KDO1 180821Z 17005KT 13/M00 A2981 RMK A01 T01331002  RH  039%=      5-min Rain = 0
KDO1 180822Z 18007KT 13/M00 A2981 RMK A01 T01321002  RH  040%=      5-min Rain = 0
KDO1 180823Z 18006KT 13/M00 A2981 RMK A01 T01321002  RH  040%=      5-min Rain = 0
KDO1 180824Z 17005KT 13/M00 A2981 RMK A01 T01321003  RH  040%=      5-min Rain = 0
KDO1 180825Z 17005KT 13/M00 A2981 RMK A01 T01321003  RH  039%=      5-min Rain = 0
KDO1 180826Z 17005KT 13/M00 A2981 RMK A01 T01321002  RH  039%=      5-min Rain = 0
KDO1 180827Z 17005KT 13/M00 A2981 RMK A01 T01321003  RH  040%=      5-min Rain = 0
KDO1 180828Z 17004KT 13/M00 A2981 RMK A01 T01311003  RH  040%=      5-min Rain = 0
KDO1 180829Z 17004KT 13/M00 A2981 RMK A01 T01311003  RH  040%=      5-min Rain = 0
KDO1 180830Z 17004KT 13/M00 A2981 RMK A01 T01311003  RH  040%=      5-min Rain = 0
KDO1 180831Z 17004KT 13/M00 A2981 RMK A01 T01301003  RH  040%=      5-min Rain = 0
KDO1 180832Z 18004KT 13/M00 A2981 RMK A01 T01291003  RH  040%=      5-min Rain = 0
KDO1 180833Z 18004KT 13/M00 A2981 RMK A01 T01281003  RH  040%=      5-min Rain = 0
KDO1 180834Z 18004KT 13/M00 A2981 RMK A01 T01271003  RH  041%=      5-min Rain = 0
KDO1 180835Z 19004KT 13/M00 A2981 RMK A01 T01261003  RH  041%=      5-min Rain = 0
KDO1 180836Z 19003KT 13/M00 A2981 RMK A01 T01251003  RH  041%=      5-min Rain = 0
KDO1 180837Z 19003KT 12/M00 A2981 RMK A01 T01231003  RH  042%=      5-min Rain = 0
KDO1 180838Z 20003KT 12/M00 A2981 RMK A01 T01221002  RH  042%=      5-min Rain = 0
KDO1 180839Z 20003KT 12/M00 A2981 RMK A01 T01211003  RH  043%=      5-min Rain = 0
KDO1 180840Z 20004KT 12/M00 A2981 RMK A01 T01201003  RH  043%=      5-min Rain = 0
KDO1 180841Z 20004KT 12/M00 A2981 RMK A01 T01191003  RH  043%=      5-min Rain = 0
KDO1 180842Z 20004KT 12/M00 A2981 RMK A01 T01181003  RH  043%=      5-min Rain = 0
KDO1 180843Z 20004KT 12/M00 A2981 RMK A01 T01181003  RH  043%=      5-min Rain = 0
KDO1 180844Z 20005KT 12/M00 A2981 RMK A01 T01171003  RH  044%=      5-min Rain = 0
KDO1 180845Z 20005KT 12/M00 A2981 RMK A01 T01171003  RH  044%=      5-min Rain = 0
KDO1 180846Z 20005KT 12/M00 A2981 RMK A01 T01171003  RH  043%=      5-min Rain = 0
KDO1 180847Z 20005KT 12/M00 A2981 RMK A01 T01181003  RH  043%=      5-min Rain = 0
KDO1 180848Z 20005KT 12/M00 A2981 RMK A01 T01181003  RH  043%=      5-min Rain = 0
KDO1 180849Z 20005KT 12/M00 A2981 RMK A01 T01181003  RH  043%=      5-min Rain = 0
KDO1 180850Z 20005KT 12/M00 A2981 RMK A01 T01171004  RH  043%=      5-min Rain = 0
KDO1 180851Z 20005KT 12/M00 A2981 RMK A01 T01161003  RH  044%=      5-min Rain = 0
KDO1 180852Z 20005KT 12/M00 A2981 RMK A01 T01151003  RH  044%=      5-min Rain = 0
KDO1 180853Z 20005KT 12/M00 A2981 RMK A01 T01151003  RH  044%=      5-min Rain = 0
KDO1 180854Z 21005KT 12/M00 A2981 RMK A01 T01151003  RH  044%=      5-min Rain = 0
KDO1 180855Z 21005KT 11/M00 A2981 RMK A01 T01141003  RH  044%=      5-min Rain = 0
KDO1 180856Z 21004KT 11/M00 A2981 RMK A01 T01131003  RH  044%=      5-min Rain = 0
KDO1 180857Z 21004KT 11/M00 A2981 RMK A01 T01131003  RH  045%=      5-min Rain = 0
KDO1 180858Z 21004KT 11/M00 A2981 RMK A01 T01121003  RH  045%=      5-min Rain = 0
KDO1 180859Z 21004KT 11/M00 A2981 RMK A01 T01121003  RH  045%=      5-min Rain = 0
KDO1 180900Z 22004KT 11/M00 A2981 RMK A01 T01121003  RH  045%=      5-min Rain = 0
KDO1 180901Z 21004KT 11/M00 A2981 RMK A01 T01131003  RH  045%=      5-min Rain = 0
KDO1 180902Z 21004KT 11/M00 A2981 RMK A01 T01131003  RH  045%=      5-min Rain = 0
KDO1 180903Z 21004KT 11/M00 A2981 RMK A01 T01131003  RH  045%=      5-min Rain = 0
KDO1 180904Z 21004KT 11/M00 A2981 RMK A01 T01141003  RH  044%=      5-min Rain = 0
KDO1 180905Z 21004KT 12/M00 A2981 RMK A01 T01151002  RH  044%=      5-min Rain = 0
KDO1 180906Z 21004KT 12/M00 A2981 RMK A01 T01151002  RH  044%=      5-min Rain = 0
KDO1 180907Z 21004KT 12/M00 A2981 RMK A01 T01161002  RH  044%=      5-min Rain = 0
KDO1 180908Z 21004KT 12/M00 A2981 RMK A01 T01171002  RH  044%=      5-min Rain = 0
KDO1 180909Z 22004KT 12/M00 A2981 RMK A01 T01171002  RH  044%=      5-min Rain = 0
KDO1 180910Z 21004KT 12/M00 A2981 RMK A01 T01171002  RH  044%=      5-min Rain = 0
KDO1 180911Z 21004KT 12/M00 A2981 RMK A01 T01171002  RH  044%=      5-min Rain = 0
KDO1 180912Z 21004KT 12/M00 A298 RMK A01 T01171002  RH  044%=      5-min Rain = 0
KDO1 180913Z 20004KT 12/M00 A298 RMK A01 T01171003  RH  044%=      5-min Rain = 0
KDO1 180914Z 20004KT 12/M00 A298 RMK A01 T01171002  RH  044%=      5-min Rain = 0
KDO1 180915Z 20004KT 12/M00 A298 RMK A01 T01171003  RH  044%=      5-min Rain = 0
KDO1 180916Z 20004KT 12/M00 A298 RMK A01 T01171002  RH  044%=      5-min Rain = 0
KDO1 180917Z 20004KT 12/M00 A298 RMK A01 T01171002  RH  044%=      5-min Rain = 0
KDO1 180918Z 20004KT 12/M00 A298 RMK A01 T01181002  RH  044%=      5-min Rain = 0
KDO1 180919Z 20004KT 12/M00 A298 RMK A01 T01181002  RH  044%=      5-min Rain = 0
KDO1 180920Z 19004KT 12/M00 A298 RMK A01 T01181002  RH  044%=      5-min Rain = 0
KDO1 180921Z 19004KT 12/M00 A298 RMK A01 T01181002  RH  043%=      5-min Rain = 0
KDO1 180922Z 19004KT 12/M00 A298 RMK A01 T01181002  RH  043%=      5-min Rain = 0
KDO1 180923Z 19005KT 12/M00 A298 RMK A01 T01191002  RH  043%=      5-min Rain = 0
KDO1 180924Z 18005KT 12/M00 A298 RMK A01 T01191002  RH  043%=      5-min Rain = 0
KDO1 180925Z 18005KT 12/M00 A298 RMK A01 T01181002  RH  043%=      5-min Rain = 0
KDO1 180926Z 18005KT 12/M00 A298 RMK A01 T01191002  RH  043%=      5-min Rain = 0
KDO1 180927Z 18005KT 12/M00 A298 RMK A01 T01191001  RH  044%=      5-min Rain = 0
KDO1 180928Z 18005KT 12/M00 A298 RMK A01 T01191002  RH  043%=      5-min Rain = 0
KDO1 180929Z 18005KT 12/M00 A298 RMK A01 T01191002  RH  043%=      5-min Rain = 0
KDO1 180930Z 17005KT 12/M00 A298 RMK A01 T01191001  RH  043%=      5-min Rain = 0
KDO1 180931Z 17005KT 12/M00 A2979 RMK A01 T01191001  RH  043%=      5-min Rain = 0
KDO1 180932Z 17005KT 12/M00 A2979 RMK A01 T01191001  RH  043%=      5-min Rain = 0
KDO1 180933Z 17005KT 12/M00 A2979 RMK A01 T01201001  RH  043%=      5-min Rain = 0
KDO1 180934Z 17005KT 12/M00 A2979 RMK A01 T01201001  RH  043%=      5-min Rain = 0
KDO1 180935Z 17004KT 12/M00 A2979 RMK A01 T01201001  RH  043%=      5-min Rain = 0
KDO1 180936Z 17004KT 12/M00 A2979 RMK A01 T01201001  RH  043%=      5-min Rain = 0
KDO1 180937Z 16004KT 12/M00 A2979 RMK A01 T01201001  RH  043%=      5-min Rain = 0
KDO1 180938Z 16003KT 12/M00 A2979 RMK A01 T01201001  RH  043%=      5-min Rain = 0
KDO1 180939Z 16003KT 12/M00 A2979 RMK A01 T01201001  RH  043%=      5-min Rain = 0
KDO1 180940Z 16003KT 12/M00 A2979 RMK A01 T01191001  RH  044%=      5-min Rain = 0
KDO1 180941Z 15003KT 12/M00 A2979 RMK A01 T01181001  RH  044%=      5-min Rain = 0
KDO1 180942Z 15003KT 12/M00 A2979 RMK A01 T01171001  RH  044%=      5-min Rain = 0
KDO1 180943Z 14003KT 12/M00 A2979 RMK A01 T01161001  RH  044%=      5-min Rain = 0
KDO1 180944Z 14003KT 12/M00 A2979 RMK A01 T01161001  RH  044%=      5-min Rain = 0
KDO1 180945Z 14003KT 12/M00 A2979 RMK A01 T01151001  RH  045%=      5-min Rain = 0
KDO1 180946Z 13003KT 11/M00 A2979 RMK A01 T01131002  RH  045%=      5-min Rain = 0
KDO1 180947Z 14003KT 11/M00 A2979 RMK A01 T01121002  RH  045%=      5-min Rain = 0
KDO1 180948Z 14003KT 11/M00 A2979 RMK A01 T01111002  RH  045%=      5-min Rain = 0
KDO1 180949Z 13003KT 11/M00 A2979 RMK A01 T01101003  RH  046%=      5-min Rain = 0
KDO1 180950Z 13003KT 11/M00 A2979 RMK A01 T01091003  RH  046%=      5-min Rain = 0
KDO1 180951Z 13004KT 11/M00 A2979 RMK A01 T01091003  RH  046%=      5-min Rain = 0
KDO1 180952Z 13004KT 11/M00 A2979 RMK A01 T01091002  RH  046%=      5-min Rain = 0
KDO1 180953Z 13003KT 11/M00 A2979 RMK A01 T01091003  RH  046%=      5-min Rain = 0
KDO1 180954Z 13003KT 11/M00 A2979 RMK A01 T01081002  RH  046%=      5-min Rain = 0
KDO1 180955Z 13003KT 11/M00 A2979 RMK A01 T01081002  RH  046%=      5-min Rain = 0
KDO1 180956Z 13003KT 11/M00 A2979 RMK A01 T01081002  RH  047%=      5-min Rain = 0
KDO1 180957Z 13003KT 11/M00 A2979 RMK A01 T01071003  RH  047%=      5-min Rain = 0
KDO1 180958Z 14004KT 11/M00 A2979 RMK A01 T01071003  RH  047%=      5-min Rain = 0
KDO1 180959Z 14004KT 11/M00 A2979 RMK A01 T01071003  RH  047%=      5-min Rain = 0
KDO1 181000Z 15004KT 11/M00 A2979 RMK A01 T01071003  RH  046%=      5-min Rain = 0
KDO1 181001Z 15004KT 11/M00 A2979 RMK A01 T01071003  RH  046%=      5-min Rain = 0
KDO1 181002Z 15004KT 11/M00 A2979 RMK A01 T01071003  RH  046%=      5-min Rain = 0
KDO1 181003Z 15004KT 11/M00 A2979 RMK A01 T01071003  RH  046%=      5-min Rain = 0
KDO1 181004Z 15004KT 11/M00 A2979 RMK A01 T01071003  RH  046%=      5-min Rain = 0
KDO1 181005Z 14004KT 11/M00 A2979 RMK A01 T01071003  RH  046%=      5-min Rain = 0
KDO1 181006Z 14004KT 11/M00 A2979 RMK A01 T01081002  RH  046%=      5-min Rain = 0
KDO1 181007Z 14004KT 11/M00 A2979 RMK A01 T01081003  RH  046%=      5-min Rain = 0
KDO1 181008Z 14003KT 11/M00 A2979 RMK A01 T01081002  RH  046%=      5-min Rain = 0
KDO1 181009Z 14003KT 11/M00 A2979 RMK A01 T01071003  RH  047%=      5-min Rain = 0
KDO1 181010Z 15004KT 11/M00 A2979 RMK A01 T01071003  RH  047%=      5-min Rain = 0
KDO1 181011Z 14004KT 11/M00 A2979 RMK A01 T01061003  RH  047%=      5-min Rain = 0
KDO1 181012Z 15004KT 11/M00 A2979 RMK A01 T01061003  RH  047%=      5-min Rain = 0
KDO1 181013Z 15004KT 11/M00 A2979 RMK A01 T01061003  RH  047%=      5-min Rain = 0
KDO1 181014Z 15004KT 11/M00 A2979 RMK A01 T01051003  RH  047%=      5-min Rain = 0
KDO1 181015Z 15004KT 11/M00 A2979 RMK A01 T01051003  RH  047%=      5-min Rain = 0
KDO1 181016Z 15003KT 11/M00 A2979 RMK A01 T01051003  RH  047%=      5-min Rain = 0
KDO1 181017Z 14003KT 10/M00 A2979 RMK A01 T01041003  RH  047%=      5-min Rain = 0
KDO1 181018Z 14003KT 10/M00 A2979 RMK A01 T01041003  RH  047%=      5-min Rain = 0
KDO1 181019Z 14003KT 10/M00 A2979 RMK A01 T01041002  RH  048%=      5-min Rain = 0
KDO1 181020Z 13003KT 10/M00 A2979 RMK A01 T01041002  RH  048%=      5-min Rain = 0
KDO1 181021Z 12003KT 10/M00 A2979 RMK A01 T01041003  RH  047%=      5-min Rain = 0
KDO1 181022Z 12003KT 11/M00 A2979 RMK A01 T01051003  RH  047%=      5-min Rain = 0
KDO1 181023Z 11003KT 11/M00 A2979 RMK A01 T01051003  RH  047%=      5-min Rain = 0
KDO1 181024Z 11003KT 11/M00 A2979 RMK A01 T01051003  RH  047%=      5-min Rain = 0
KDO1 181025Z 11003KT 11/M00 A2979 RMK A01 T01051003  RH  047%=      5-min Rain = 0
KDO1 181026Z 11003KT 11/M00 A2979 RMK A01 T01051002  RH  047%=      5-min Rain = 0
KDO1 181027Z 11002KT 11/M00 A2979 RMK A01 T01051002  RH  047%=      5-min Rain = 0
KDO1 181028Z 11002KT 11/M00 A2979 RMK A01 T01051002  RH  047%=      5-min Rain = 0
KDO1 181029Z 11002KT 10/M00 A2979 RMK A01 T01041002  RH  048%=      5-min Rain = 0
KDO1 181030Z 11002KT 10/M00 A2979 RMK A01 T01041002  RH  048%=      5-min Rain = 0
KDO1 181031Z 11002KT 10/M00 A2979 RMK A01 T01041002  RH  048%=      5-min Rain = 0
KDO1 181032Z 11003KT 10/M00 A2979 RMK A01 T01041002  RH  048%=      5-min Rain = 0
KDO1 181033Z 11002KT 10/M00 A2979 RMK A01 T01041002  RH  048%=      5-min Rain = 0
KDO1 181034Z 11002KT 10/M00 A2979 RMK A01 T01041002  RH  048%=      5-min Rain = 0
KDO1 181035Z 11002KT 10/M00 A2979 RMK A01 T01041002  RH  048%=      5-min Rain = 0
KDO1 181036Z 10002KT 10/M00 A2979 RMK A01 T01031002  RH  048%=      5-min Rain = 0
KDO1 181037Z 09001KT 10/M00 A2979 RMK A01 T01031003  RH  048%=      5-min Rain = 0
KDO1 181038Z 08001KT 10/M00 A2979 RMK A01 T01031003  RH  048%=      5-min Rain = 0
KDO1 181039Z 08001KT 10/M00 A2979 RMK A01 T01031003  RH  048%=      5-min Rain = 0
KDO1 181040Z 07001KT 10/M00 A2979 RMK A01 T01031003  RH  048%=      5-min Rain = 0
KDO1 181041Z 07001KT 10/M00 A2979 RMK A01 T01031002  RH  048%=      5-min Rain = 0
KDO1 181042Z 07001KT 10/M00 A2979 RMK A01 T01021002  RH  048%=      5-min Rain = 0
KDO1 181043Z 08002KT 10/M00 A2979 RMK A01 T01011002  RH  049%=      5-min Rain = 0
KDO1 181044Z 08002KT 10/M00 A2979 RMK A01 T01011002  RH  049%=      5-min Rain = 0
KDO1 181045Z 08002KT 10/M00 A2979 RMK A01 T01011002  RH  049%=      5-min Rain = 0
KDO1 181046Z 09002KT 10/M00 A2979 RMK A01 T01011002  RH  049%=      5-min Rain = 0
KDO1 181047Z 08002KT 10/M00 A2979 RMK A01 T01011003  RH  049%=      5-min Rain = 0
KDO1 181048Z 08003KT 10/M00 A2979 RMK A01 T01011003  RH  049%=      5-min Rain = 0
KDO1 181049Z 07002KT 10/M00 A2979 RMK A01 T01011002  RH  049%=      5-min Rain = 0
KDO1 181050Z 07002KT 10/M00 A2979 RMK A01 T01011002  RH  049%=      5-min Rain = 0
KDO1 181051Z 07002KT 10/M00 A2979 RMK A01 T01001002  RH  049%=      5-min Rain = 0
KDO1 181052Z 07003KT 10/M00 A2979 RMK A01 T01011002  RH  049%=      5-min Rain = 0
KDO1 181053Z 08002KT 10/M00 A2979 RMK A01 T01001002  RH  049%=      5-min Rain = 0
KDO1 181054Z 07002KT 10/M00 A2979 RMK A01 T01001002  RH  049%=      5-min Rain = 0
KDO1 181055Z 08002KT 10/M00 A2979 RMK A01 T01001003  RH  049%=      5-min Rain = 0
KDO1 181056Z 08002KT 10/M00 A2979 RMK A01 T01011002  RH  049%=      5-min Rain = 0
KDO1 181057Z 08003KT 10/M00 A2979 RMK A01 T01001002  RH  049%=      5-min Rain = 0
KDO1 181058Z 09003KT 10/M00 A2979 RMK A01 T01001002  RH  049%=      5-min Rain = 0
KDO1 181059Z 08002KT 10/M00 A2979 RMK A01 T01001002  RH  049%=      5-min Rain = 0
KDO1 181100Z 09002KT 10/M00 A2979 RMK A01 T01001002  RH  049%=      5-min Rain = 0
KDO1 181101Z 08002KT 10/M00 A2979 RMK A01 T00991002  RH  049%=      5-min Rain = 0
KDO1 181102Z 09002KT 10/M00 A2979 RMK A01 T00991002  RH  049%=      5-min Rain = 0
KDO1 181103Z 10002KT 10/M00 A2979 RMK A01 T00991002  RH  049%=      5-min Rain = 0
KDO1 181104Z 10002KT 10/M00 A2979 RMK A01 T00991003  RH  049%=      5-min Rain = 0
KDO1 181105Z 10003KT 10/M00 A2979 RMK A01 T01001003  RH  049%=      5-min Rain = 0
KDO1 181106Z 10002KT 10/M00 A2979 RMK A01 T01011002  RH  049%=      5-min Rain = 0
KDO1 181107Z 10002KT 10/M00 A2979 RMK A01 T01011003  RH  049%=      5-min Rain = 0
KDO1 181108Z 09002KT 10/M00 A2979 RMK A01 T01011002  RH  049%=      5-min Rain = 0
KDO1 181109Z 09002KT 10/M00 A2979 RMK A01 T01011003  RH  049%=      5-min Rain = 0
KDO1 181110Z 09002KT 10/M00 A2979 RMK A01 T01011003  RH  049%=      5-min Rain = 0
KDO1 181111Z 11003KT 10/M00 A2979 RMK A01 T01011002  RH  049%=      5-min Rain = 0
KDO1 181112Z 11001KT 10/M00 A2979 RMK A01 T01011002  RH  049%=      5-min Rain = 0
KDO1 181113Z 10002KT 10/M00 A2979 RMK A01 T01031002  RH  048%=      5-min Rain = 0
KDO1 181114Z 11002KT 10/M00 A2979 RMK A01 T01031002  RH  048%=      5-min Rain = 0
KDO1 181115Z 13003KT 10/M00 A2979 RMK A01 T01031002  RH  048%=      5-min Rain = 0
KDO1 181116Z 12002KT 10/M00 A2979 RMK A01 T01041002  RH  048%=      5-min Rain = 0
KDO1 181117Z 13003KT 10/M00 A2979 RMK A01 T01041002  RH  048%=      5-min Rain = 0
KDO1 181118Z 13003KT 10/M00 A298 RMK A01 T01041002  RH  048%=      5-min Rain = 0
KDO1 181119Z 14003KT 10/M00 A298 RMK A01 T01041002  RH  048%=      5-min Rain = 0
KDO1 181120Z 12003KT 10/M00 A2979 RMK A01 T01041002  RH  048%=      5-min Rain = 0
KDO1 181121Z 13003KT 10/M00 A2979 RMK A01 T01041002  RH  048%=      5-min Rain = 0
KDO1 181122Z 12004KT 10/M00 A2979 RMK A01 T01041002  RH  048%=      5-min Rain = 0
KDO1 181123Z 12004KT 10/M00 A2979 RMK A01 T01031002  RH  048%=      5-min Rain = 0
KDO1 181124Z 13003KT 10/M00 A2979 RMK A01 T01021002  RH  049%=      5-min Rain = 0
KDO1 181125Z 13003KT 10/M00 A2979 RMK A01 T01011002  RH  049%=      5-min Rain = 0
KDO1 181126Z 13004KT 10/M00 A2979 RMK A01 T01011002  RH  049%=      5-min Rain = 0
KDO1 181127Z 13003KT 10/M00 A2979 RMK A01 T01001002  RH  049%=      5-min Rain = 0
KDO1 181128Z 13004KT 10/M00 A2979 RMK A01 T00991002  RH  049%=      5-min Rain = 0
KDO1 181129Z 13004KT 10/M00 A2979 RMK A01 T00991002  RH  049%=      5-min Rain = 0
KDO1 181130Z 13004KT 10/M00 A2979 RMK A01 T00981002  RH  050%=      5-min Rain = 0
KDO1 181131Z 13004KT 10/M00 A2979 RMK A01 T00971002  RH  050%=      5-min Rain = 0
KDO1 181132Z 13004KT 10/M00 A2979 RMK A01 T00961002  RH  050%=      5-min Rain = 0
KDO1 181133Z 13004KT 10/M00 A2979 RMK A01 T00961002  RH  051%=      5-min Rain = 0
KDO1 181134Z 13004KT 10/M00 A2979 RMK A01 T00951002  RH  051%=      5-min Rain = 0
KDO1 181135Z 13004KT 09/M00 A2979 RMK A01 T00941003  RH  051%=      5-min Rain = 0
KDO1 181136Z 13005KT 09/M00 A2979 RMK A01 T00941002  RH  051%=      5-min Rain = 0
KDO1 181137Z 13005KT 09/M00 A2979 RMK A01 T00941002  RH  051%=      5-min Rain = 0
KDO1 181138Z 13004KT 09/M00 A2979 RMK A01 T00931003  RH  051%=      5-min Rain = 0
KDO1 181139Z 13004KT 09/M00 A2979 RMK A01 T00921003  RH  051%=      5-min Rain = 0
KDO1 181140Z 13004KT 09/M00 A2979 RMK A01 T00911003  RH  052%=      5-min Rain = 0
KDO1 181141Z 13004KT 09/M00 A2979 RMK A01 T00911003  RH  052%=      5-min Rain = 0
KDO1 181142Z 12004KT 09/M00 A2979 RMK A01 T00911003  RH  052%=      5-min Rain = 0
KDO1 181143Z 12004KT 09/M00 A2979 RMK A01 T00901002  RH  052%=      5-min Rain = 0
KDO1 181144Z 12004KT 09/M00 A2979 RMK A01 T00901002  RH  052%=      5-min Rain = 0
KDO1 181145Z 12004KT 09/M00 A2979 RMK A01 T00901002  RH  052%=      5-min Rain = 0
KDO1 181146Z 12003KT 09/M00 A2979 RMK A01 T00901002  RH  052%=      5-min Rain = 0
KDO1 181147Z 12003KT 09/M00 A2979 RMK A01 T00891002  RH  053%=      5-min Rain = 0
KDO1 181148Z 12003KT 09/M00 A2979 RMK A01 T00891002  RH  053%=      5-min Rain = 0
KDO1 181149Z 11004KT 09/M00 A2979 RMK A01 T00891002  RH  053%=      5-min Rain = 0
KDO1 181150Z 11004KT 09/M00 A2979 RMK A01 T00881003  RH  053%=      5-min Rain = 0
KDO1 181151Z 12004KT 09/M00 A2979 RMK A01 T00881003  RH  053%=      5-min Rain = 0
KDO1 181152Z 11004KT 09/M00 A2979 RMK A01 T00891002  RH  053%=      5-min Rain = 0
KDO1 181153Z 11004KT 09/M00 A2979 RMK A01 T00901002  RH  052%=      5-min Rain = 0
KDO1 181154Z 12003KT 09/M00 A2979 RMK A01 T00911002  RH  052%=      5-min Rain = 0
KDO1 181155Z 12003KT 09/M00 A2979 RMK A01 T00911002  RH  052%=      5-min Rain = 0
KDO1 181156Z 12003KT 09/M00 A2979 RMK A01 T00911002  RH  052%=      5-min Rain = 0
KDO1 181157Z 12003KT 09/M00 A2979 RMK A01 T00911002  RH  052%=      5-min Rain = 0
KDO1 181158Z 12003KT 09/M00 A2979 RMK A01 T00911002  RH  052%=      5-min Rain = 0
KDO1 181159Z 12003KT 09/M00 A2979 RMK A01 T00911002  RH  052%=      5-min Rain = 0
KDO1 181200Z 12003KT 09/M00 A2979 RMK A01 T00921002  RH  052%=      5-min Rain = 0
KDO1 181201Z 12002KT 09/M00 A2979 RMK A01 T00921002  RH  052%=      5-min Rain = 0
KDO1 181202Z 12003KT 09/M00 A2979 RMK A01 T00921002  RH  052%=      5-min Rain = 0
KDO1 181203Z 12002KT 09/M00 A2979 RMK A01 T00911002  RH  052%=      5-min Rain = 0
KDO1 181204Z 12001KT 09/M00 A298 RMK A01 T00901002  RH  052%=      5-min Rain = 0
KDO1 181205Z 13001KT 09/M00 A298 RMK A01 T00901002  RH  052%=      5-min Rain = 0
KDO1 181206Z 14001KT 09/M00 A298 RMK A01 T00901002  RH  053%=      5-min Rain = 0
KDO1 181207Z 12001KT 09/M00 A298 RMK A01 T00891002  RH  053%=      5-min Rain = 0
KDO1 181208Z 13002KT 09/M00 A2979 RMK A01 T00891002  RH  053%=      5-min Rain = 0
KDO1 181209Z 13002KT 09/M00 A2979 RMK A01 T00891002  RH  053%=      5-min Rain = 0
KDO1 181210Z 13002KT 09/M00 A2979 RMK A01 T00891002  RH  053%=      5-min Rain = 0
KDO1 181211Z 12002KT 09/M00 A2979 RMK A01 T00891002  RH  053%=      5-min Rain = 0
KDO1 181212Z 13002KT 09/M00 A2979 RMK A01 T00881002  RH  053%=      5-min Rain = 0
KDO1 181213Z 12002KT 09/M00 A2979 RMK A01 T00891001  RH  053%=      5-min Rain = 0
KDO1 181214Z 12003KT 09/M00 A2979 RMK A01 T00881002  RH  053%=      5-min Rain = 0
KDO1 181215Z 12003KT 09/M00 A2979 RMK A01 T00881001  RH  053%=      5-min Rain = 0
KDO1 181216Z 12003KT 09/M00 A2979 RMK A01 T00881001  RH  053%=      5-min Rain = 0
KDO1 181217Z 12003KT 09/M00 A2979 RMK A01 T00881002  RH  053%=      5-min Rain = 0
KDO1 181218Z 11003KT 09/M00 A2979 RMK A01 T00881002  RH  053%=      5-min Rain = 0
KDO1 181219Z 11003KT 09/M00 A2979 RMK A01 T00881002  RH  053%=      5-min Rain = 0
KDO1 181220Z 12003KT 09/M00 A2979 RMK A01 T00881002  RH  053%=      5-min Rain = 0
KDO1 181221Z 11003KT 09/M00 A2979 RMK A01 T00881002  RH  053%=      5-min Rain = 0
KDO1 181222Z 11003KT 09/M00 A2979 RMK A01 T00891001  RH  053%=      5-min Rain = 0
KDO1 181223Z 11004KT 09/M00 A2979 RMK A01 T00891001  RH  053%=      5-min Rain = 0
KDO1 181224Z 11004KT 09/M00 A2979 RMK A01 T00881001  RH  053%=      5-min Rain = 0
KDO1 181225Z 11005KT 09/M00 A2979 RMK A01 T00871001  RH  054%=      5-min Rain = 0
KDO1 181226Z 11005KT 09/M00 A2979 RMK A01 T00871001  RH  054%=      5-min Rain = 0
KDO1 181227Z 11004KT 09/M00 A2979 RMK A01 T00861001  RH  054%=      5-min Rain = 0
KDO1 181228Z 11004KT 09/M00 A2979 RMK A01 T00861001  RH  054%=      5-min Rain = 0
KDO1 181229Z 11004KT 09/M00 A2979 RMK A01 T00851001  RH  055%=      5-min Rain = 0
KDO1 181230Z 11004KT 08/M00 A2979 RMK A01 T00841002  RH  055%=      5-min Rain = 0
KDO1 181231Z 11004KT 08/M00 A2979 RMK A01 T00831001  RH  055%=      5-min Rain = 0
KDO1 181232Z 12004KT 08/M00 A2979 RMK A01 T00831001  RH  056%=      5-min Rain = 0
KDO1 181233Z 12004KT 08/M00 A2979 RMK A01 T00821001  RH  056%=      5-min Rain = 0
KDO1 181234Z 12004KT 08/M00 A2979 RMK A01 T00811001  RH  056%=      5-min Rain = 0
KDO1 181235Z 12004KT 08/M00 A2979 RMK A01 T00811001  RH  056%=      5-min Rain = 0
KDO1 181236Z 12004KT 08/M00 A2979 RMK A01 T00811001  RH  056%=      5-min Rain = 0
KDO1 181237Z 13005KT 08/M00 A2979 RMK A01 T00811001  RH  056%=      5-min Rain = 0
KDO1 181238Z 13005KT 08/M00 A2979 RMK A01 T00811001  RH  056%=      5-min Rain = 0
KDO1 181239Z 13004KT 08/M00 A2979 RMK A01 T00811001  RH  056%=      5-min Rain = 0
KDO1 181240Z 13005KT 08/M00 A2979 RMK A01 T00811001  RH  056%=      5-min Rain = 0
KDO1 181241Z 13004KT 08/M00 A2979 RMK A01 T00821001  RH  056%=      5-min Rain = 0
KDO1 181242Z 12005KT 08/M00 A2979 RMK A01 T00821001  RH  056%=      5-min Rain = 0
KDO1 181243Z 13005KT 08/M00 A2979 RMK A01 T00821001  RH  056%=      5-min Rain = 0
KDO1 181244Z 13005KT 08/M00 A2979 RMK A01 T00811001  RH  056%=      5-min Rain = 0
KDO1 181245Z 13006KT 08/M00 A2979 RMK A01 T00811001  RH  056%=      5-min Rain = 0
KDO1 181246Z 13005KT 08/00 A2979 RMK A01 T008100-0  RH  056%=      5-min Rain = 0
KDO1 181247Z 13005KT 08/00 A2979 RMK A01 T008100-0  RH  056%=      5-min Rain = 0
KDO1 181248Z 13005KT 08/M00 A2979 RMK A01 T00811001  RH  056%=      5-min Rain = 0
KDO1 181249Z 14005KT 08/M00 A2979 RMK A01 T00811001  RH  056%=      5-min Rain = 0
KDO1 181250Z 14005KT 08/M00 A2979 RMK A01 T00811001  RH  056%=      5-min Rain = 0
KDO1 181251Z 14005KT 08/M00 A2979 RMK A01 T00811001  RH  056%=      5-min Rain = 0
KDO1 181252Z 15005KT 08/00 A2979 RMK A01 T008200-0  RH  056%=      5-min Rain = 0
KDO1 181253Z 15005KT 08/00 A2979 RMK A01 T00830000  RH  056%=      5-min Rain = 0
KDO1 181254Z 15005KT 08/00 A2979 RMK A01 T00830000  RH  056%=      5-min Rain = 0
KDO1 181255Z 15004KT 08/00 A2979 RMK A01 T00840000  RH  056%=      5-min Rain = 0
KDO1 181256Z 15004KT 08/00 A2979 RMK A01 T00840000  RH  055%=      5-min Rain = 0
KDO1 181257Z 14005KT 09/00 A2979 RMK A01 T00850000  RH  055%=      5-min Rain = 0
KDO1 181258Z 16003KT 09/00 A2979 RMK A01 T00850000  RH  055%=      5-min Rain = 0
KDO1 181259Z 17002KT 09/00 A2979 RMK A01 T00860001  RH  055%=      5-min Rain = 0
KDO1 181300Z 18002KT 09/00 A2979 RMK A01 T00850000  RH  055%=      5-min Rain = 0
KDO1 181301Z 22002KT 09/00 A298 RMK A01 T00850000  RH  055%=      5-min Rain = 0
KDO1 181302Z 24002KT 08/00 A298 RMK A01 T00840000  RH  056%=      5-min Rain = 0
KDO1 181303Z 25002KT 08/00 A2979 RMK A01 T008200-0  RH  056%=      5-min Rain = 0
KDO1 181304Z 25002KT 08/00 A2979 RMK A01 T008200-0  RH  056%=      5-min Rain = 0
KDO1 181305Z 25002KT 08/00 A2979 RMK A01 T00820000  RH  056%=      5-min Rain = 0
KDO1 181306Z 25001KT 08/00 A2979 RMK A01 T008100-0  RH  056%=      5-min Rain = 0
KDO1 181307Z 25001KT 08/00 A2979 RMK A01 T008100-0  RH  056%=      5-min Rain = 0
KDO1 181308Z 23001KT 08/00 A2979 RMK A01 T00820000  RH  056%=      5-min Rain = 0
KDO1 181309Z 22001KT 08/00 A2979 RMK A01 T00820000  RH  056%=      5-min Rain = 0
KDO1 181310Z 21001KT 08/00 A2979 RMK A01 T00820001  RH  056%=      5-min Rain = 0
KDO1 181311Z 20002KT 08/00 A2979 RMK A01 T00830001  RH  056%=      5-min Rain = 0
KDO1 181312Z 19002KT 08/00 A2979 RMK A01 T00840001  RH  056%=      5-min Rain = 0
KDO1 181313Z 17002KT 09/00 A2979 RMK A01 T00850001  RH  056%=      5-min Rain = 0
KDO1 181314Z 17002KT 09/00 A2979 RMK A01 T00860001  RH  055%=      5-min Rain = 0
KDO1 181315Z 16002KT 09/00 A2979 RMK A01 T00870002  RH  055%=      5-min Rain = 0
KDO1 181316Z 17002KT 09/00 A2979 RMK A01 T00890002  RH  054%=      5-min Rain = 0
KDO1 181317Z 18001KT 09/00 A2979 RMK A01 T00900002  RH  054%=      5-min Rain = 0
KDO1 181318Z 19001KT 09/00 A2979 RMK A01 T00900002  RH  054%=      5-min Rain = 0
KDO1 181319Z 21001KT 09/00 A2979 RMK A01 T00910002  RH  054%=      5-min Rain = 0
KDO1 181320Z 24001KT 09/00 A2979 RMK A01 T00910002  RH  054%=      5-min Rain = 0
KDO1 181321Z 25002KT 09/00 A2979 RMK A01 T00910003  RH  054%=      5-min Rain = 0
KDO1 181322Z 25002KT 09/00 A2979 RMK A01 T00900003  RH  054%=      5-min Rain = 0
KDO1 181323Z 25002KT 09/00 A2979 RMK A01 T00900004  RH  055%=      5-min Rain = 0
KDO1 181324Z 25002KT 09/00 A2979 RMK A01 T00900004  RH  055%=      5-min Rain = 0
KDO1 181325Z 25002KT 09/00 A2979 RMK A01 T00900004  RH  055%=      5-min Rain = 0
KDO1 181326Z 24002KT 09/01 A2979 RMK A01 T00900005  RH  055%=      5-min Rain = 0
KDO1 181327Z 22002KT 09/01 A2979 RMK A01 T00910006  RH  055%=      5-min Rain = 0
KDO1 181328Z 21002KT 09/01 A2979 RMK A01 T00910005  RH  055%=      5-min Rain = 0
KDO1 181329Z 21002KT 09/01 A2979 RMK A01 T00920005  RH  054%=      5-min Rain = 0
KDO1 181330Z 22002KT 09/01 A2979 RMK A01 T00930005  RH  054%=      5-min Rain = 0
KDO1 181331Z 23002KT 09/00 A2979 RMK A01 T00940004  RH  054%=      5-min Rain = 0
KDO1 181332Z 23001KT 10/01 A2979 RMK A01 T00950005  RH  053%=      5-min Rain = 0
KDO1 181333Z 23002KT 10/01 A2979 RMK A01 T00950005  RH  053%=      5-min Rain = 0
KDO1 181334Z 22001KT 10/01 A2979 RMK A01 T00960005  RH  053%=      5-min Rain = 0
KDO1 181335Z 20001KT 10/01 A2979 RMK A01 T00960005  RH  053%=      5-min Rain = 0
KDO1 181336Z 19002KT 10/00 A2979 RMK A01 T00970004  RH  052%=      5-min Rain = 0
KDO1 181337Z 17002KT 10/01 A2979 RMK A01 T00980005  RH  052%=      5-min Rain = 0
KDO1 181338Z 16002KT 10/00 A2979 RMK A01 T00990004  RH  052%=      5-min Rain = 0
KDO1 181339Z 17002KT 10/00 A2979 RMK A01 T01010004  RH  051%=      5-min Rain = 0
KDO1 181340Z 16002KT 10/01 A2979 RMK A01 T01020005  RH  051%=      5-min Rain = 0
KDO1 181341Z 16002KT 10/01 A2979 RMK A01 T01030005  RH  051%=      5-min Rain = 0
KDO1 181342Z 17003KT 10/01 A2979 RMK A01 T01040006  RH  050%=      5-min Rain = 0
KDO1 181343Z 17003KT 11/00 A2979 RMK A01 T01050004  RH  050%=      5-min Rain = 0
KDO1 181344Z 18002KT 11/00 A2979 RMK A01 T01050004  RH  050%=      5-min Rain = 0
KDO1 181345Z 17003KT 11/01 A2979 RMK A01 T01050005  RH  050%=      5-min Rain = 0
KDO1 181346Z 17002KT 10/01 A2979 RMK A01 T01040005  RH  050%=      5-min Rain = 0
KDO1 181347Z 16003KT 10/01 A2979 RMK A01 T01040005  RH  050%=      5-min Rain = 0
KDO1 181348Z 16003KT 11/01 A2979 RMK A01 T01050006  RH  050%=      5-min Rain = 0
KDO1 181349Z 17002KT 11/01 A2979 RMK A01 T01050006  RH  050%=      5-min Rain = 0
KDO1 181350Z 17003KT 11/01 A2979 RMK A01 T01070008  RH  050%=      5-min Rain = 0
KDO1 181351Z 17003KT 11/01 A2979 RMK A01 T01070008  RH  050%=      5-min Rain = 0
KDO1 181352Z 17004KT 11/01 A2979 RMK A01 T01080007  RH  050%=      5-min Rain = 0
KDO1 181353Z 17003KT 11/01 A2979 RMK A01 T01080008  RH  050%=      5-min Rain = 0
KDO1 181354Z 16005KT 11/01 A2979 RMK A01 T01090008  RH  050%=      5-min Rain = 0
KDO1 181355Z 17004KT 11/01 A2979 RMK A01 T01100007  RH  049%=      5-min Rain = 0
KDO1 181356Z 16005KT 11/01 A2979 RMK A01 T01100008  RH  049%=      5-min Rain = 0
KDO1 181357Z 15005KT 11/01 A2979 RMK A01 T01120008  RH  049%=      5-min Rain = 0
KDO1 181358Z 15006KT 11/01 A2979 RMK A01 T01120007  RH  048%=      5-min Rain = 0
KDO1 181359Z 16006KT 11/01 A2979 RMK A01 T01120007  RH  048%=      5-min Rain = 0
KDO1 181400Z 15005KT 11/01 A2978 RMK A01 T01130007  RH  048%=      5-min Rain = 0
KDO1 181401Z 15004KT 11/01 A2978 RMK A01 T01130008  RH  048%=      5-min Rain = 0
KDO1 181402Z 14004KT 12/01 A2979 RMK A01 T01150010  RH  048%=      5-min Rain = 0
KDO1 181403Z 14005KT 12/01 A2979 RMK A01 T01170010  RH  048%=      5-min Rain = 0
KDO1 181404Z 14004KT 12/01 A2979 RMK A01 T01180010  RH  047%=      5-min Rain = 0
KDO1 181405Z 13005KT 12/01 A2979 RMK A01 T01190010  RH  047%=      5-min Rain = 0
KDO1 181406Z 14005KT 12/01 A2979 RMK A01 T01200009  RH  047%=      5-min Rain = 0
KDO1 181407Z 15005KT 12/01 A2979 RMK A01 T01200009  RH  047%=      5-min Rain = 0
KDO1 181408Z 15005KT 12/01 A2979 RMK A01 T01190009  RH  047%=      5-min Rain = 0
KDO1 181409Z 15005KT 12/01 A2979 RMK A01 T01190009  RH  047%=      5-min Rain = 0
KDO1 181410Z 14005KT 12/01 A2979 RMK A01 T01200010  RH  047%=      5-min Rain = 0
KDO1 181411Z 14005KT 12/01 A2979 RMK A01 T01190009  RH  047%=      5-min Rain = 0
KDO1 181412Z 12004KT 12/01 A2979 RMK A01 T01190010  RH  047%=      5-min Rain = 0
KDO1 181413Z 14003KT 12/01 A2979 RMK A01 T01200011  RH  047%=      5-min Rain = 0
KDO1 181414Z 16003KT 12/01 A2979 RMK A01 T01220011  RH  046%=      5-min Rain = 0
KDO1 181415Z 15004KT 12/01 A2979 RMK A01 T01230011  RH  046%=      5-min Rain = 0
KDO1 181416Z 15006KT 12/01 A2979 RMK A01 T01230011  RH  046%=      5-min Rain = 0
KDO1 181417Z 16006KT 12/01 A2979 RMK A01 T01230010  RH  046%=      5-min Rain = 0
KDO1 181418Z 16006KT 12/01 A2979 RMK A01 T01230011  RH  046%=      5-min Rain = 0
KDO1 181419Z 16009KT 12/01 A2979 RMK A01 T01230011  RH  046%=      5-min Rain = 0
KDO1 181420Z 16007KT 12/01 A2979 RMK A01 T01230011  RH  046%=      5-min Rain = 0
KDO1 181421Z 15008KT 12/01 A2979 RMK A01 T01230011  RH  046%=      5-min Rain = 0
KDO1 181422Z 16009KT 12/01 A2979 RMK A01 T01230010  RH  046%=      5-min Rain = 0
KDO1 181423Z 15008KT 12/01 A2979 RMK A01 T01220010  RH  046%=      5-min Rain = 0
KDO1 181424Z 15007KT 12/01 A2979 RMK A01 T01220011  RH  046%=      5-min Rain = 0
KDO1 181425Z 16008KT 12/01 A2979 RMK A01 T01220011  RH  047%=      5-min Rain = 0
KDO1 181426Z 16007KT 12/01 A2979 RMK A01 T01220011  RH  047%=      5-min Rain = 0
KDO1 181427Z 16005KT 12/01 A2979 RMK A01 T01220012  RH  047%=      5-min Rain = 0
KDO1 181428Z 17007KT 12/01 A2979 RMK A01 T01240013  RH  047%=      5-min Rain = 0
KDO1 181429Z 17007KT 13/01 A2979 RMK A01 T01250013  RH  046%=      5-min Rain = 0
KDO1 181430Z 15008KT 13/01 A2979 RMK A01 T01250013  RH  046%=      5-min Rain = 0
KDO1 181431Z 15007KT 13/01 A2979 RMK A01 T01250013  RH  046%=      5-min Rain = 0
KDO1 181432Z 15007KT 13/01 A2979 RMK A01 T01250013  RH  047%=      5-min Rain = 0
KDO1 181433Z 16007KT 12/01 A2979 RMK A01 T01240013  RH  047%=      5-min Rain = 0
KDO1 181434Z 16006KT 12/01 A2979 RMK A01 T01240013  RH  047%=      5-min Rain = 0
KDO1 181435Z 14006KT 12/01 A2979 RMK A01 T01240014  RH  047%=      5-min Rain = 0
KDO1 181436Z 14005KT 13/01 A2979 RMK A01 T01250014  RH  047%=      5-min Rain = 0
KDO1 181437Z 14005KT 13/02 A2979 RMK A01 T01250015  RH  047%=      5-min Rain = 0
KDO1 181438Z 14004KT 13/01 A2979 RMK A01 T01260014  RH  047%=      5-min Rain = 0
KDO1 181439Z 14004KT 13/02 A2979 RMK A01 T01270015  RH  047%=      5-min Rain = 0
KDO1 181440Z 13005KT 13/02 A2979 RMK A01 T01280016  RH  046%=      5-min Rain = 0
KDO1 181441Z 13005KT 13/02 A2979 RMK A01 T01280016  RH  046%=      5-min Rain = 0
KDO1 181442Z 14004KT 13/02 A2979 RMK A01 T01300017  RH  046%=      5-min Rain = 0
KDO1 181443Z 14004KT 13/02 A2979 RMK A01 T01310016  RH  046%=      5-min Rain = 0
KDO1 181444Z 11005KT 13/02 A2979 RMK A01 T01320018  RH  046%=      5-min Rain = 0
KDO1 181445Z 13005KT 14/02 A2979 RMK A01 T01350020  RH  045%=      5-min Rain = 0
KDO1 181446Z 13005KT 14/02 A2979 RMK A01 T01380020  RH  045%=      5-min Rain = 0
KDO1 181447Z 13004KT 14/02 A2979 RMK A01 T01390019  RH  044%=      5-min Rain = 0
KDO1 181448Z 13004KT 14/02 A2979 RMK A01 T01400020  RH  044%=      5-min Rain = 0
KDO1 181449Z 14004KT 14/02 A2979 RMK A01 T01410020  RH  044%=      5-min Rain = 0
KDO1 181450Z 15003KT 14/02 A2979 RMK A01 T01420020  RH  044%=      5-min Rain = 0
KDO1 181451Z 14005KT 14/02 A2979 RMK A01 T01430021  RH  043%=      5-min Rain = 0
KDO1 181452Z 16006KT 15/02 A2979 RMK A01 T01450021  RH  043%=      5-min Rain = 0
KDO1 181453Z 16006KT 15/02 A2979 RMK A01 T01450022  RH  043%=      5-min Rain = 0
KDO1 181454Z 17006KT 15/02 A2979 RMK A01 T01460022  RH  043%=      5-min Rain = 0
KDO1 181455Z 16006KT 15/02 A2979 RMK A01 T01450021  RH  043%=      5-min Rain = 0
KDO1 181456Z 14006KT 15/02 A2979 RMK A01 T01450022  RH  043%=      5-min Rain = 0
KDO1 181457Z 14006KT 15/02 A2979 RMK A01 T01460023  RH  043%=      5-min Rain = 0
KDO1 181458Z 16005KT 15/03 A2979 RMK A01 T01500025  RH  043%=      5-min Rain = 0
KDO1 181459Z 16005KT 15/03 A2979 RMK A01 T01530027  RH  043%=      5-min Rain = 0
KDO1 181500Z 16007KT 16/03 A2978 RMK A01 T01550026  RH  042%=      5-min Rain = 0
KDO1 181501Z 16005KT 15/03 A2978 RMK A01 T01540025  RH  042%=      5-min Rain = 0
KDO1 181502Z 15005KT 15/03 A2978 RMK A01 T01530026  RH  042%=      5-min Rain = 0
KDO1 181503Z 14005KT 16/03 A2978 RMK A01 T01550026  RH  042%=      5-min Rain = 0
KDO1 181504Z 14007KT 16/03 A2978 RMK A01 T01570028  RH  042%=      5-min Rain = 0
KDO1 181505Z 16007KT 16/03 A2978 RMK A01 T01580029  RH  042%=      5-min Rain = 0
KDO1 181506Z 15006KT 16/03 A2978 RMK A01 T01590030  RH  042%=      5-min Rain = 0
KDO1 181507Z 14007KT 16/03 A2978 RMK A01 T01590030  RH  042%=      5-min Rain = 0
KDO1 181508Z 15006KT 16/03 A2978 RMK A01 T01610031  RH  042%=      5-min Rain = 0
KDO1 181509Z 16005KT 16/03 A2978 RMK A01 T01630033  RH  042%=      5-min Rain = 0
KDO1 181510Z 15007KT 17/03 A2978 RMK A01 T01660034  RH  041%=      5-min Rain = 0
KDO1 181511Z 16007KT 17/03 A2978 RMK A01 T01670034  RH  041%=      5-min Rain = 0
KDO1 181512Z 15006KT 17/03 A2978 RMK A01 T01660034  RH  041%=      5-min Rain = 0
KDO1 181513Z 15006KT 17/03 A2978 RMK A01 T01670034  RH  041%=      5-min Rain = 0
KDO1 181514Z 17007KT 17/04 A2978 RMK A01 T01680036  RH  041%=      5-min Rain = 0
KDO1 181515Z 16007KT 17/04 A2978 RMK A01 T01680038  RH  042%=      5-min Rain = 0
KDO1 181516Z 16009KT 17/04 A2978 RMK A01 T01680040  RH  042%=      5-min Rain = 0
KDO1 181517Z 17008KT 17/04 A2978 RMK A01 T01680040  RH  043%=      5-min Rain = 0
KDO1 181518Z 16011KT 17/04 A2978 RMK A01 T01680042  RH  043%=      5-min Rain = 0
KDO1 181519Z 16010KT 17/04 A2977 RMK A01 T01690043  RH  043%=      5-min Rain = 0
KDO1 181520Z 16008KT 17/04 A2977 RMK A01 T01690044  RH  043%=      5-min Rain = 0
KDO1 181521Z 14010KT 17/04 A2977 RMK A01 T01690044  RH  043%=      5-min Rain = 0
KDO1 181522Z 15010KT 17/05 A2977 RMK A01 T01700047  RH  044%=      5-min Rain = 0
KDO1 181523Z 16011KT 17/05 A2977 RMK A01 T01710047  RH  044%=      5-min Rain = 0
KDO1 181524Z 16010KT 17/05 A2977 RMK A01 T01710047  RH  044%=      5-min Rain = 0
KDO1 181525Z 15011KT 17/05 A2977 RMK A01 T01710047  RH  044%=      5-min Rain = 0
KDO1 181526Z 16011KT 17/05 A2977 RMK A01 T01700049  RH  045%=      5-min Rain = 0
KDO1 181527Z 15010KT 17/05 A2977 RMK A01 T01700050  RH  045%=      5-min Rain = 0
KDO1 181528Z 15010KT 17/05 A2977 RMK A01 T01710050  RH  045%=      5-min Rain = 0
KDO1 181529Z 16010KT 17/05 A2977 RMK A01 T01720050  RH  045%=      5-min Rain = 0
KDO1 181530Z 16009KT 17/05 A2977 RMK A01 T01740052  RH  045%=      5-min Rain = 0
KDO1 181531Z 16009KT 18/06 A2977 RMK A01 T01760055  RH  045%=      5-min Rain = 0
KDO1 181532Z 16010KT 18/05 A2977 RMK A01 T01770053  RH  044%=      5-min Rain = 0
KDO1 181533Z 17009KT 18/05 A2977 RMK A01 T01770054  RH  044%=      5-min Rain = 0
KDO1 181534Z 17010KT 18/05 A2977 RMK A01 T01780054  RH  044%=      5-min Rain = 0
KDO1 181535Z 16008KT 18/05 A2977 RMK A01 T01780053  RH  044%=      5-min Rain = 0
KDO1 181536Z 14009KT 18/06 A2977 RMK A01 T01780055  RH  044%=      5-min Rain = 0
KDO1 181537Z 15007KT 18/06 A2977 RMK A01 T01790056  RH  044%=      5-min Rain = 0
KDO1 181538Z 15007KT 18/06 A2977 RMK A01 T01810057  RH  044%=      5-min Rain = 0
KDO1 181539Z 15009KT 18/06 A2977 RMK A01 T01820058  RH  044%=      5-min Rain = 0
KDO1 181540Z 16008KT 18/06 A2977 RMK A01 T01830058  RH  044%=      5-min Rain = 0
KDO1 181541Z 15010KT 18/06 A2977 RMK A01 T01830059  RH  044%=      5-min Rain = 0
KDO1 181542Z 16008KT 18/06 A2977 RMK A01 T01830061  RH  045%=      5-min Rain = 0
KDO1 181543Z 17008KT 18/06 A2977 RMK A01 T01840062  RH  045%=      5-min Rain = 0
KDO1 181544Z 16010KT 18/06 A2977 RMK A01 T01830061  RH  045%=      5-min Rain = 0
KDO1 181545Z 17009KT 18/06 A2977 RMK A01 T01830062  RH  045%=      5-min Rain = 0
KDO1 181546Z 17008KT 18/06 A2977 RMK A01 T01830063  RH  045%=      5-min Rain = 0
KDO1 181547Z 18009KT 18/06 A2977 RMK A01 T01830061  RH  045%=      5-min Rain = 0
KDO1 181548Z 17008KT 18/06 A2977 RMK A01 T01840059  RH  044%=      5-min Rain = 0
KDO1 181549Z 16009KT 18/06 A2977 RMK A01 T01840059  RH  044%=      5-min Rain = 0
KDO1 181550Z 15007KT 18/06 A2977 RMK A01 T01830058  RH  044%=      5-min Rain = 0
KDO1 181551Z 18008KT 18/06 A2977 RMK A01 T01830059  RH  044%=      5-min Rain = 0
KDO1 181552Z 17010KT 18/06 A2977 RMK A01 T01840061  RH  045%=      5-min Rain = 0
KDO1 181553Z 16006KT 18/06 A2977 RMK A01 T01840062  RH  045%=      5-min Rain = 0
KDO1 181554Z 17007KT 19/06 A2977 RMK A01 T01860061  RH  044%=      5-min Rain = 0
KDO1 181555Z 18008KT 19/06 A2977 RMK A01 T01870064  RH  044%=      5-min Rain = 0
KDO1 181556Z 17007KT 19/07 A2976 RMK A01 T01900066  RH  044%=      5-min Rain = 0
KDO1 181557Z 18008KT 19/07 A2976 RMK A01 T01910066  RH  044%=      5-min Rain = 0
KDO1 181558Z 17006KT 19/07 A2977 RMK A01 T01910067  RH  044%=      5-min Rain = 0
KDO1 181559Z 16008KT 19/07 A2977 RMK A01 T01920065  RH  043%=      5-min Rain = 0
KDO1 181600Z 17008KT 19/06 A2977 RMK A01 T01910064  RH  043%=      5-min Rain = 0
KDO1 181601Z 17007KT 19/06 A2976 RMK A01 T01900064  RH  044%=      5-min Rain = 0
KDO1 181602Z 18009KT 19/07 A2976 RMK A01 T01900066  RH  044%=      5-min Rain = 0
KDO1 181603Z 19008KT 19/07 A2976 RMK A01 T01910067  RH  044%=      5-min Rain = 0
KDO1 181604Z 19007KT 19/07 A2976 RMK A01 T01910069  RH  045%=      5-min Rain = 0
KDO1 181605Z 17010KT 19/07 A2976 RMK A01 T01920069  RH  045%=      5-min Rain = 0
KDO1 181606Z 16008KT 19/07 A2976 RMK A01 T01940069  RH  044%=      5-min Rain = 0
KDO1 181607Z 16008KT 20/07 A2976 RMK A01 T01960069  RH  043%=      5-min Rain = 0
KDO1 181608Z 18008KT 20/07 A2976 RMK A01 T01980068  RH  043%=      5-min Rain = 0
KDO1 181609Z 18008KT 20/07 A2976 RMK A01 T01970068  RH  043%=      5-min Rain = 0
KDO1 181610Z 17007KT 20/07 A2976 RMK A01 T01960070  RH  044%=      5-min Rain = 0
KDO1 181611Z 18006KT 20/07 A2976 RMK A01 T01970070  RH  043%=      5-min Rain = 0
KDO1 181612Z 16006KT 20/07 A2976 RMK A01 T02000070  RH  043%=      5-min Rain = 0
KDO1 181613Z 15007KT 20/07 A2976 RMK A01 T02010067  RH  042%=      5-min Rain = 0
KDO1 181614Z 15009KT 20/07 A2976 RMK A01 T02000070  RH  043%=      5-min Rain = 0
KDO1 181615Z 16009KT 20/07 A2976 RMK A01 T02010070  RH  043%=      5-min Rain = 0
KDO1 181616Z 18008KT 20/07 A2976 RMK A01 T02000069  RH  043%=      5-min Rain = 0
KDO1 181617Z 18009KT 20/07 A2976 RMK A01 T01990068  RH  043%=      5-min Rain = 0
KDO1 181618Z 17011KT 20/07 A2976 RMK A01 T01990068  RH  043%=      5-min Rain = 0
KDO1 181619Z 17011KT 20/07 A2976 RMK A01 T01970066  RH  043%=      5-min Rain = 0
KDO1 181620Z 18008KT 20/07 A2976 RMK A01 T01950066  RH  043%=      5-min Rain = 0
KDO1 181621Z 19007KT 20/07 A2976 RMK A01 T01950067  RH  043%=      5-min Rain = 0
KDO1 181622Z 19007KT 20/07 A2976 RMK A01 T01970067  RH  043%=      5-min Rain = 0
KDO1 181623Z 17007KT 20/07 A2975 RMK A01 T01980067  RH  042%=      5-min Rain = 0
KDO1 181624Z 19008KT 20/07 A2975 RMK A01 T02000069  RH  042%=      5-min Rain = 0
KDO1 181625Z 20009KT 20/07 A2975 RMK A01 T02020069  RH  042%=      5-min Rain = 0
KDO1 181626Z 17009KT 20/07 A2975 RMK A01 T02020069  RH  042%=      5-min Rain = 0
KDO1 181627Z 16008KT 20/07 A2975 RMK A01 T02020067  RH  041%=      5-min Rain = 0
KDO1 181628Z 17011KT 20/07 A2975 RMK A01 T02010067  RH  042%=      5-min Rain = 0
KDO1 181629Z 18011KT 20/07 A2975 RMK A01 T02010067  RH  042%=      5-min Rain = 0
KDO1 181630Z 19008KT 20/07 A2975 RMK A01 T02000066  RH  042%=      5-min Rain = 0
KDO1 181631Z 18004KT 20/07 A2975 RMK A01 T01990066  RH  042%=      5-min Rain = 0
KDO1 181632Z 18009KT 20/07 A2975 RMK A01 T02010067  RH  042%=      5-min Rain = 0
KDO1 181633Z 19009KT 20/07 A2975 RMK A01 T02030068  RH  041%=      5-min Rain = 0
KDO1 181634Z 18009KT 20/07 A2975 RMK A01 T02030069  RH  042%=      5-min Rain = 0
KDO1 181635Z 16008KT 20/07 A2975 RMK A01 T02030068  RH  042%=      5-min Rain = 0
KDO1 181636Z 16008KT 20/07 A2975 RMK A01 T02030068  RH  041%=      5-min Rain = 0
KDO1 181637Z 17010KT 21/07 A2975 RMK A01 T02050069  RH  041%=      5-min Rain = 0
KDO1 181638Z 15011KT 21/07 A2975 RMK A01 T02050068  RH  041%=      5-min Rain = 0
KDO1 181639Z 16011KT 20/07 A2975 RMK A01 T02040067  RH  041%=      5-min Rain = 0
KDO1 181640Z 16010KT 20/07 A2975 RMK A01 T02030068  RH  041%=      5-min Rain = 0
KDO1 181641Z 17008KT 20/07 A2975 RMK A01 T02020067  RH  041%=      5-min Rain = 0
KDO1 181642Z 16009KT 20/07 A2975 RMK A01 T02040069  RH  042%=      5-min Rain = 0
KDO1 181643Z 16008KT 21/07 A2975 RMK A01 T02060068  RH  041%=      5-min Rain = 0
KDO1 181644Z 16011KT 21/07 A2975 RMK A01 T02060068  RH  041%=      5-min Rain = 0
KDO1 181645Z 16010KT 21/07 A2975 RMK A01 T02060069  RH  041%=      5-min Rain = 0
KDO1 181646Z 17008KT 21/07 A2975 RMK A01 T02060069  RH  041%=      5-min Rain = 0
KDO1 181647Z 16010KT 21/07 A2975 RMK A01 T02080072  RH  041%=      5-min Rain = 0
KDO1 181648Z 17012KT 21/07 A2975 RMK A01 T02110072  RH  041%=      5-min Rain = 0
KDO1 181649Z 17010KT 21/07 A2974 RMK A01 T02110071  RH  040%=      5-min Rain = 0
KDO1 181650Z 16009G15KT 21/07 A2974 RMK A01 T02110072  RH  040%=      5-min Rain = 0
KDO1 181651Z 17012KT 21/07 A2974 RMK A01 T02110073  RH  041%=      5-min Rain = 0
KDO1 181652Z 17010KT 21/07 A2974 RMK A01 T02120074  RH  041%=      5-min Rain = 0
KDO1 181653Z 16010KT 21/08 A2974 RMK A01 T02130075  RH  041%=      5-min Rain = 0
KDO1 181654Z 14011KT 21/07 A2974 RMK A01 T02140074  RH  040%=      5-min Rain = 0
KDO1 181655Z 15013KT 21/07 A2974 RMK A01 T02140074  RH  040%=      5-min Rain = 0
KDO1 181656Z 14012KT 22/08 A2974 RMK A01 T02150076  RH  041%=      5-min Rain = 0
KDO1 181657Z 14010KT 22/08 A2974 RMK A01 T02160078  RH  041%=      5-min Rain = 0
KDO1 181658Z 15014KT 22/08 A2973 RMK A01 T02190081  RH  041%=      5-min Rain = 0
KDO1 181659Z 17013KT 22/08 A2973 RMK A01 T02200083  RH  041%=      5-min Rain = 0
KDO1 181700Z 18012KT 22/08 A2973 RMK A01 T02210084  RH  042%=      5-min Rain = 0
KDO1 181701Z 18010KT 22/08 A2973 RMK A01 T02210083  RH  041%=      5-min Rain = 0
KDO1 181702Z 18011KT 22/08 A2973 RMK A01 T02220084  RH  041%=      5-min Rain = 0
KDO1 181703Z 17012KT 22/08 A2973 RMK A01 T02220084  RH  041%=      5-min Rain = 0
KDO1 181704Z 18009KT 22/08 A2973 RMK A01 T02230084  RH  041%=      5-min Rain = 0
KDO1 181705Z 15012KT 23/09 A2973 RMK A01 T02250085  RH  041%=      5-min Rain = 0
KDO1 181706Z 18012KT 23/09 A2973 RMK A01 T02270086  RH  040%=      5-min Rain = 0
KDO1 181707Z 18013KT 23/09 A2973 RMK A01 T02260085  RH  040%=      5-min Rain = 0
KDO1 181708Z 19011KT 22/09 A2973 RMK A01 T02240086  RH  041%=      5-min Rain = 0
KDO1 181709Z 16012KT 23/09 A2973 RMK A01 T02270087  RH  041%=      5-min Rain = 0
KDO1 181710Z 16011KT 23/09 A2973 RMK A01 T02270085  RH  040%=      5-min Rain = 0
KDO1 181711Z 17012KT 23/09 A2973 RMK A01 T02280086  RH  040%=      5-min Rain = 0
KDO1 181712Z 17009KT 23/09 A2973 RMK A01 T02280085  RH  040%=      5-min Rain = 0
KDO1 181713Z 17014KT 23/08 A2973 RMK A01 T02270084  RH  040%=      5-min Rain = 0
KDO1 181714Z 17012KT 23/08 A2973 RMK A01 T02260084  RH  040%=      5-min Rain = 0
KDO1 181715Z 17012KT 23/08 A2973 RMK A01 T02270084  RH  040%=      5-min Rain = 0
KDO1 181716Z 17010KT 23/08 A2973 RMK A01 T02250084  RH  040%=      5-min Rain = 0
KDO1 181717Z 17011KT 22/08 A2973 RMK A01 T02240084  RH  041%=      5-min Rain = 0
KDO1 181718Z 16012KT 22/08 A2973 RMK A01 T02240083  RH  040%=      5-min Rain = 0
KDO1 181719Z 17011KT 22/08 A2973 RMK A01 T02240084  RH  041%=      5-min Rain = 0
KDO1 181720Z 18010KT 22/08 A2973 RMK A01 T02240083  RH  040%=      5-min Rain = 0
KDO1 181721Z 18011KT 23/08 A2973 RMK A01 T02260084  RH  040%=      5-min Rain = 0
KDO1 181722Z 19010G15KT 23/09 A2973 RMK A01 T02270085  RH  040%=      5-min Rain = 0
KDO1 181723Z 18014KT 23/08 A2973 RMK A01 T02290084  RH  040%=      5-min Rain = 0
KDO1 181724Z 17010KT 23/08 A2973 RMK A01 T02280084  RH  040%=      5-min Rain = 0
KDO1 181725Z 17011KT 23/09 A2973 RMK A01 T02280085  RH  040%=      5-min Rain = 0
KDO1 181726Z 17013KT 23/09 A2973 RMK A01 T02280085  RH  040%=      5-min Rain = 0
KDO1 181727Z 17010KT 23/08 A2973 RMK A01 T02290084  RH  039%=      5-min Rain = 0
KDO1 181728Z 17013KT 23/09 A2972 RMK A01 T02290085  RH  040%=      5-min Rain = 0
KDO1 181729Z 16012KT 23/09 A2972 RMK A01 T02290085  RH  040%=      5-min Rain = 0
KDO1 181730Z 17010KT 23/09 A2972 RMK A01 T02290085  RH  040%=      5-min Rain = 0
KDO1 181731Z 16012KT 23/09 A2972 RMK A01 T02310086  RH  039%=      5-min Rain = 0
KDO1 181732Z 18012KT 23/09 A2972 RMK A01 T02320086  RH  039%=      5-min Rain = 0
KDO1 181733Z 17011KT 23/09 A2972 RMK A01 T02320087  RH  040%=      5-min Rain = 0
KDO1 181734Z 16009KT 23/09 A2972 RMK A01 T02340087  RH  039%=      5-min Rain = 0
KDO1 181735Z 17015KT 24/09 A2972 RMK A01 T02370087  RH  039%=      5-min Rain = 0
KDO1 181736Z 16014KT 24/09 A2972 RMK A01 T02360086  RH  038%=      5-min Rain = 0
KDO1 181737Z 16013KT 24/09 A2972 RMK A01 T02350086  RH  039%=      5-min Rain = 0
KDO1 181738Z 16011KT 23/09 A2972 RMK A01 T02340086  RH  039%=      5-min Rain = 0
KDO1 181739Z 16012G17KT 24/09 A2972 RMK A01 T02350087  RH  039%=      5-min Rain = 0
KDO1 181740Z 16014KT 24/09 A2972 RMK A01 T02360087  RH  039%=      5-min Rain = 0
KDO1 181741Z 17014KT 24/09 A2971 RMK A01 T02370087  RH  038%=      5-min Rain = 0
KDO1 181742Z 17013KT 24/09 A2972 RMK A01 T02380088  RH  038%=      5-min Rain = 0
KDO1 181743Z 17013KT 24/09 A2971 RMK A01 T02370088  RH  039%=      5-min Rain = 0
KDO1 181744Z 16011KT 24/09 A2971 RMK A01 T02370088  RH  039%=      5-min Rain = 0
KDO1 181745Z 16013KT 24/09 A2971 RMK A01 T02390088  RH  038%=      5-min Rain = 0
KDO1 181746Z 15012KT 24/09 A2971 RMK A01 T02380088  RH  038%=      5-min Rain = 0
KDO1 181747Z 17010G16KT 24/09 A2971 RMK A01 T02380089  RH  039%=      5-min Rain = 0
KDO1 181748Z 17012KT 24/09 A2971 RMK A01 T02400089  RH  038%=      5-min Rain = 0
KDO1 181749Z 17014KT 24/09 A2971 RMK A01 T02410089  RH  038%=      5-min Rain = 0
KDO1 181750Z 16008KT 24/09 A2971 RMK A01 T02400088  RH  038%=      5-min Rain = 0
KDO1 181751Z 15010KT 24/09 A2971 RMK A01 T02420089  RH  038%=      5-min Rain = 0
KDO1 181752Z 16012KT 24/09 A2971 RMK A01 T02430090  RH  038%=      5-min Rain = 0
KDO1 181753Z 18015KT 25/09 A2971 RMK A01 T02450090  RH  037%=      5-min Rain = 0
KDO1 181754Z 18014KT 24/09 A2971 RMK A01 T02430089  RH  038%=      5-min Rain = 0
KDO1 181755Z 16009KT 24/09 A2971 RMK A01 T02430090  RH  038%=      5-min Rain = 0
KDO1 181756Z 15009G16KT 25/09 A2971 RMK A01 T02460091  RH  038%=      5-min Rain = 0
KDO1 181757Z 15012KT 25/09 A2971 RMK A01 T02470091  RH  037%=      5-min Rain = 0
KDO1 181758Z 15013KT 25/09 A2971 RMK A01 T02480092  RH  037%=      5-min Rain = 0
KDO1 181759Z 17010KT 25/09 A2971 RMK A01 T02470092  RH  037%=      5-min Rain = 0
KDO1 181800Z 18010KT 25/09 A2971 RMK A01 T02470093  RH  038%=      5-min Rain = 0
KDO1 181801Z 16010KT 25/09 A2971 RMK A01 T02470094  RH  038%=      5-min Rain = 0
KDO1 181802Z 17011KT 25/10 A2971 RMK A01 T02480095  RH  038%=      5-min Rain = 0
KDO1 181803Z 18013KT 25/10 A2971 RMK A01 T02490095  RH  038%=      5-min Rain = 0
KDO1 181804Z 17010KT 25/10 A2971 RMK A01 T02490096  RH  038%=      5-min Rain = 0
KDO1 181805Z 17014KT 25/10 A297 RMK A01 T02490096  RH  038%=      5-min Rain = 0
KDO1 181806Z 18011G16KT 25/10 A2971 RMK A01 T02490096  RH  038%=      5-min Rain = 0
KDO1 181807Z 16010KT 25/10 A2971 RMK A01 T02510098  RH  038%=      5-min Rain = 0
KDO1 181808Z 15013KT 25/10 A2971 RMK A01 T02540097  RH  037%=      5-min Rain = 0
KDO1 181809Z 15012KT 25/10 A2971 RMK A01 T02520095  RH  037%=      5-min Rain = 0
KDO1 181810Z 17010KT 25/10 A2971 RMK A01 T02490096  RH  038%=      5-min Rain = 0
KDO1 181811Z 17010KT 25/10 A2971 RMK A01 T02490097  RH  038%=      5-min Rain = 0
KDO1 181812Z 18012KT 25/10 A2971 RMK A01 T02510097  RH  038%=      5-min Rain = 0
KDO1 181813Z 16011KT 25/10 A297 RMK A01 T02530097  RH  037%=      5-min Rain = 0
KDO1 181814Z 16011G16KT 25/10 A297 RMK A01 T02530097  RH  037%=      5-min Rain = 0
KDO1 181815Z 15015KT 25/10 A297 RMK A01 T02530098  RH  037%=      5-min Rain = 0
KDO1 181816Z 17010KT 25/10 A297 RMK A01 T02530098  RH  038%=      5-min Rain = 0
KDO1 181817Z 17013KT 25/10 A297 RMK A01 T02540098  RH  037%=      5-min Rain = 0
KDO1 181818Z 17009KT 25/10 A297 RMK A01 T02540098  RH  037%=      5-min Rain = 0
KDO1 181819Z 16011G17KT 25/10 A297 RMK A01 T02530098  RH  038%=      5-min Rain = 0
KDO1 181820Z 16013KT 26/10 A297 RMK A01 T02560100  RH  037%=      5-min Rain = 0
KDO1 181821Z 15013KT 26/10 A297 RMK A01 T02570099  RH  037%=      5-min Rain = 0
KDO1 181822Z 16011KT 26/10 A297 RMK A01 T02570099  RH  037%=      5-min Rain = 0
KDO1 181823Z 15011KT 26/10 A297 RMK A01 T02550098  RH  037%=      5-min Rain = 0
KDO1 181824Z 15011KT 25/10 A297 RMK A01 T02540100  RH  038%=      5-min Rain = 0
KDO1 181825Z 14013G19KT 26/10 A2969 RMK A01 T02560099  RH  037%=      5-min Rain = 0
KDO1 181826Z 15013G18KT 26/10 A2969 RMK A01 T02570099  RH  037%=      5-min Rain = 0
KDO1 181827Z 17010KT 26/10 A2969 RMK A01 T02590102  RH  037%=      5-min Rain = 0
KDO1 181828Z 16013KT 26/10 A2969 RMK A01 T02640102  RH  036%=      5-min Rain = 0
KDO1 181829Z 15012KT 26/10 A2969 RMK A01 T02630102  RH  036%=      5-min Rain = 0
KDO1 181830Z 18012KT 26/10 A2969 RMK A01 T02640104  RH  037%=      5-min Rain = 0
KDO1 181831Z 18013KT 27/10 A2969 RMK A01 T02660104  RH  036%=      5-min Rain = 0
KDO1 181832Z 15012KT 27/10 A2969 RMK A01 T02660103  RH  036%=      5-min Rain = 0
KDO1 181833Z 15015KT 26/10 A2969 RMK A01 T02640100  RH  036%=      5-min Rain = 0
KDO1 181834Z 16013KT 26/10 A2969 RMK A01 T02600100  RH  037%=      5-min Rain = 0
KDO1 181835Z 16012G18KT 26/10 A2969 RMK A01 T02580101  RH  037%=      5-min Rain = 0
KDO1 181836Z 18016KT 26/10 A2969 RMK A01 T02590101  RH  037%=      5-min Rain = 0
KDO1 181837Z 16013KT 26/10 A2969 RMK A01 T02580101  RH  037%=      5-min Rain = 0
KDO1 181838Z 16009G14KT 26/10 A2969 RMK A01 T02580101  RH  037%=      5-min Rain = 0
KDO1 181839Z 16008G13KT 26/10 A2969 RMK A01 T02580099  RH  037%=      5-min Rain = 0
KDO1 181840Z 18011KT 26/10 A2969 RMK A01 T02600101  RH  037%=      5-min Rain = 0
KDO1 181841Z 18013KT 26/10 A2969 RMK A01 T02630101  RH  036%=      5-min Rain = 0
KDO1 181842Z 16014KT 26/10 A2969 RMK A01 T02610100  RH  036%=      5-min Rain = 0
KDO1 181843Z 16012KT 26/10 A2969 RMK A01 T02590099  RH  036%=      5-min Rain = 0
KDO1 181844Z 16012KT 26/10 A2969 RMK A01 T02560098  RH  037%=      5-min Rain = 0
KDO1 181845Z 16013KT 25/10 A2969 RMK A01 T02540099  RH  038%=      5-min Rain = 0
KDO1 181846Z 15011KT 25/10 A2968 RMK A01 T02540100  RH  038%=      5-min Rain = 0
KDO1 181847Z 16013KT 26/10 A2968 RMK A01 T02550100  RH  038%=      5-min Rain = 0
KDO1 181848Z 16011KT 26/10 A2968 RMK A01 T02570102  RH  038%=      5-min Rain = 0
KDO1 181849Z 17011KT 26/10 A2968 RMK A01 T02570100  RH  037%=      5-min Rain = 0
KDO1 181850Z 16009KT 26/10 A2968 RMK A01 T02570100  RH  037%=      5-min Rain = 0
KDO1 181851Z 17012G17KT 26/10 A2968 RMK A01 T02590102  RH  037%=      5-min Rain = 0
KDO1 181852Z 16014G20KT 26/10 A2968 RMK A01 T02590101  RH  037%=      5-min Rain = 0
KDO1 181853Z 17011KT 26/10 A2968 RMK A01 T02560100  RH  038%=      5-min Rain = 0
KDO1 181854Z 17010KT 26/10 A2968 RMK A01 T02550101  RH  038%=      5-min Rain = 0
KDO1 181855Z 15012KT 26/10 A2968 RMK A01 T02560102  RH  038%=      5-min Rain = 0
KDO1 181856Z 15012KT 26/10 A2968 RMK A01 T02570101  RH  038%=      5-min Rain = 0
KDO1 181857Z 14010KT 26/10 A2967 RMK A01 T02550102  RH  038%=      5-min Rain = 0
KDO1 181858Z 15009KT 26/10 A2967 RMK A01 T02560103  RH  038%=      5-min Rain = 0
KDO1 181859Z 15013KT 26/10 A2967 RMK A01 T02590103  RH  038%=      5-min Rain = 0
KDO1 181900Z 17012KT 26/10 A2967 RMK A01 T02600104  RH  038%=      5-min Rain = 0
KDO1 181901Z 17012KT 26/11 A2967 RMK A01 T02600105  RH  038%=      5-min Rain = 0
KDO1 181902Z 17013KT 26/11 A2967 RMK A01 T02600105  RH  038%=      5-min Rain = 0
KDO1 181903Z 18013KT 26/11 A2967 RMK A01 T02610107  RH  038%=      5-min Rain = 0
KDO1 181904Z 17012KT 26/11 A2967 RMK A01 T02630107  RH  038%=      5-min Rain = 0
KDO1 181905Z 17008G13KT 26/11 A2967 RMK A01 T02630107  RH  038%=      5-min Rain = 0
KDO1 181906Z 17010G16KT 26/11 A2967 RMK A01 T02620107  RH  038%=      5-min Rain = 0
KDO1 181907Z 18014G19KT 26/11 A2967 RMK A01 T02620107  RH  038%=      5-min Rain = 0
KDO1 181908Z 18013KT 26/11 A2967 RMK A01 T02620108  RH  038%=      5-min Rain = 0
KDO1 181909Z 18013KT 26/11 A2966 RMK A01 T02630108  RH  038%=      5-min Rain = 0
KDO1 181910Z 18012KT 26/11 A2966 RMK A01 T02630108  RH  038%=      5-min Rain = 0
KDO1 181911Z 17011KT 26/11 A2966 RMK A01 T02620108  RH  038%=      5-min Rain = 0
KDO1 181912Z 16012KT 27/11 A2966 RMK A01 T02650108  RH  037%=      5-min Rain = 0
KDO1 181913Z 16013KT 27/11 A2966 RMK A01 T02690107  RH  036%=      5-min Rain = 0
KDO1 181914Z 17011KT 27/11 A2966 RMK A01 T02690107  RH  036%=      5-min Rain = 0
KDO1 181915Z 17014KT 27/11 A2966 RMK A01 T02700108  RH  036%=      5-min Rain = 0
KDO1 181916Z 15012KT 27/11 A2966 RMK A01 T02690107  RH  036%=      5-min Rain = 0
KDO1 181917Z 15010KT 27/11 A2966 RMK A01 T02680108  RH  037%=      5-min Rain = 0
KDO1 181918Z 15011KT 27/11 A2966 RMK A01 T02700108  RH  036%=      5-min Rain = 0
KDO1 181919Z 14010KT 27/11 A2966 RMK A01 T02710108  RH  036%=      5-min Rain = 0
KDO1 181920Z 16010KT 27/11 A2966 RMK A01 T02710108  RH  036%=      5-min Rain = 0
KDO1 181921Z 16014KT 27/11 A2966 RMK A01 T02710108  RH  036%=      5-min Rain = 0
KDO1 181922Z 16013KT 27/11 A2966 RMK A01 T02700107  RH  036%=      5-min Rain = 0
KDO1 181923Z 15012KT 27/11 A2966 RMK A01 T02660106  RH  037%=      5-min Rain = 0
KDO1 181924Z 15011KT 27/11 A2965 RMK A01 T02650107  RH  037%=      5-min Rain = 0
KDO1 181925Z 16011KT 27/11 A2965 RMK A01 T02650107  RH  037%=      5-min Rain = 0
KDO1 181926Z 17009KT 27/11 A2965 RMK A01 T02650108  RH  037%=      5-min Rain = 0
KDO1 181927Z 17012G17KT 27/11 A2965 RMK A01 T02660108  RH  037%=      5-min Rain = 0
KDO1 181928Z 15012KT 27/11 A2965 RMK A01 T02670108  RH  037%=      5-min Rain = 0
KDO1 181929Z 17010G16KT 27/11 A2965 RMK A01 T02670108  RH  037%=      5-min Rain = 0
KDO1 181930Z 17010KT 27/11 A2965 RMK A01 T02650108  RH  037%=      5-min Rain = 0
KDO1 181931Z 17012KT 27/11 A2965 RMK A01 T02650108  RH  037%=      5-min Rain = 0
KDO1 181932Z 16010G17KT 27/11 A2965 RMK A01 T02650108  RH  037%=      5-min Rain = 0
KDO1 181933Z 16011KT 27/11 A2965 RMK A01 T02660109  RH  037%=      5-min Rain = 0
KDO1 181934Z 16009KT 27/11 A2965 RMK A01 T02670109  RH  037%=      5-min Rain = 0
KDO1 181935Z 13007KT 27/11 A2965 RMK A01 T02660108  RH  037%=      5-min Rain = 0
KDO1 181936Z 13011G16KT 27/11 A2965 RMK A01 T02660109  RH  038%=      5-min Rain = 0
KDO1 181937Z 15014G19KT 27/11 A2965 RMK A01 T02660109  RH  037%=      5-min Rain = 0
KDO1 181938Z 16011KT 27/11 A2964 RMK A01 T02660109  RH  038%=      5-min Rain = 0
KDO1 181939Z 16011KT 27/11 A2964 RMK A01 T02650110  RH  038%=      5-min Rain = 0
KDO1 181940Z 17010KT 27/11 A2964 RMK A01 T02660110  RH  038%=      5-min Rain = 0
KDO1 181941Z 16013G19KT 27/11 A2964 RMK A01 T02690112  RH  037%=      5-min Rain = 0
KDO1 181942Z 14009KT 27/11 A2964 RMK A01 T02720111  RH  037%=      5-min Rain = 0
KDO1 181943Z 14011KT 27/11 A2964 RMK A01 T02720112  RH  037%=      5-min Rain = 0
KDO1 181944Z 17012KT 27/11 A2964 RMK A01 T02720112  RH  037%=      5-min Rain = 0
KDO1 181945Z 17016G25KT 27/11 A2964 RMK A01 T02720112  RH  037%=      5-min Rain = 0
KDO1 181946Z 14016KT 27/11 A2964 RMK A01 T02720112  RH  037%=      5-min Rain = 0
KDO1 181947Z 16010KT 27/11 A2964 RMK A01 T02710111  RH  037%=      5-min Rain = 0
KDO1 181948Z 18012KT 27/11 A2964 RMK A01 T02710111  RH  037%=      5-min Rain = 0
KDO1 181949Z 17015G20KT 27/11 A2964 RMK A01 T02700112  RH  037%=      5-min Rain = 0
KDO1 181950Z 17014KT 27/11 A2964 RMK A01 T02700112  RH  037%=      5-min Rain = 0
KDO1 181951Z 17015KT 27/11 A2964 RMK A01 T02690112  RH  037%=      5-min Rain = 0
KDO1 181952Z 18011KT 27/11 A2964 RMK A01 T02680112  RH  038%=      5-min Rain = 0
KDO1 181953Z 17010KT 27/11 A2964 RMK A01 T02680113  RH  038%=      5-min Rain = 0
KDO1 181954Z 18011KT 27/11 A2964 RMK A01 T02680112  RH  038%=      5-min Rain = 0
KDO1 181955Z 17012KT 27/11 A2964 RMK A01 T02680112  RH  038%=      5-min Rain = 0
KDO1 181956Z 15012G18KT 27/11 A2964 RMK A01 T02690112  RH  038%=      5-min Rain = 0
KDO1 181957Z 17015KT 27/11 A2964 RMK A01 T02700112  RH  037%=      5-min Rain = 0
KDO1 181958Z 17012KT 27/11 A2964 RMK A01 T02700112  RH  037%=      5-min Rain = 0
KDO1 181959Z 15010KT 27/11 A2964 RMK A01 T02700112  RH  037%=      5-min Rain = 0
KDO1 182000Z 15011KT 27/11 A2964 RMK A01 T02690112  RH  037%=      5-min Rain = 0
KDO1 182001Z 15012G20KT 27/11 A2963 RMK A01 T02690112  RH  037%=      5-min Rain = 0
KDO1 182002Z 17018KT 27/11 A2964 RMK A01 T02710112  RH  037%=      5-min Rain = 0
KDO1 182003Z 16017G22KT 27/11 A2964 RMK A01 T02710112  RH  037%=      5-min Rain = 0
KDO1 182004Z 17016KT 27/11 A2964 RMK A01 T02710113  RH  037%=      5-min Rain = 0
KDO1 182005Z 17014KT 27/11 A2964 RMK A01 T02700113  RH  037%=      5-min Rain = 0
KDO1 182006Z 17016KT 27/11 A2963 RMK A01 T02700112  RH  037%=      5-min Rain = 0
KDO1 182007Z 16016KT 27/11 A2963 RMK A01 T02690112  RH  037%=      5-min Rain = 0
KDO1 182008Z 16017KT 27/11 A2963 RMK A01 T02680112  RH  038%=      5-min Rain = 0
KDO1 182009Z 16018G23KT 27/11 A2963 RMK A01 T02700113  RH  037%=      5-min Rain = 0
KDO1 182010Z 16014G19KT 27/11 A2963 RMK A01 T02730114  RH  037%=      5-min Rain = 0
KDO1 182011Z 16013G18KT 28/12 A2963 RMK A01 T02780115  RH  036%=      5-min Rain = 0
KDO1 182012Z 16016KT 28/11 A2963 RMK A01 T02800114  RH  036%=      5-min Rain = 0
KDO1 182013Z 17014G19KT 28/11 A2963 RMK A01 T02800114  RH  036%=      5-min Rain = 0
KDO1 182014Z 16014G19KT 28/11 A2963 RMK A01 T02800114  RH  036%=      5-min Rain = 0
KDO1 182015Z 15015KT 28/11 A2963 RMK A01 T02800113  RH  035%=      5-min Rain = 0
KDO1 182016Z 15017KT 28/11 A2963 RMK A01 T02810113  RH  035%=      5-min Rain = 0
KDO1 182017Z 15016KT 28/11 A2963 RMK A01 T02810113  RH  035%=      5-min Rain = 0
KDO1 182018Z 16013KT 28/11 A2963 RMK A01 T02800113  RH  035%=      5-min Rain = 0
KDO1 182019Z 16013KT 28/11 A2963 RMK A01 T02810114  RH  035%=      5-min Rain = 0
KDO1 182020Z 17015KT 28/11 A2963 RMK A01 T02830114  RH  035%=      5-min Rain = 0
KDO1 182021Z 16014KT 28/11 A2963 RMK A01 T02830114  RH  035%=      5-min Rain = 0
KDO1 182022Z 17013KT 28/11 A2963 RMK A01 T02840114  RH  035%=      5-min Rain = 0
KDO1 182023Z 17012KT 28/11 A2963 RMK A01 T02840114  RH  035%=      5-min Rain = 0
KDO1 182024Z 18012KT 29/12 A2963 RMK A01 T02860116  RH  035%=      5-min Rain = 0
KDO1 182025Z 17010KT 29/12 A2963 RMK A01 T02880116  RH  035%=      5-min Rain = 0
KDO1 182026Z 16010KT 29/12 A2963 RMK A01 T02880116  RH  034%=      5-min Rain = 0
KDO1 182027Z 17012KT 29/12 A2963 RMK A01 T02890115  RH  034%=      5-min Rain = 0
KDO1 182028Z 18010KT 29/12 A2963 RMK A01 T02880115  RH  034%=      5-min Rain = 0
KDO1 182029Z 16011KT 29/12 A2963 RMK A01 T02890116  RH  034%=      5-min Rain = 0
KDO1 182030Z 16012KT 29/12 A2963 RMK A01 T02900115  RH  034%=      5-min Rain = 0
KDO1 182031Z 16014KT 29/11 A2963 RMK A01 T02900114  RH  034%=      5-min Rain = 0
KDO1 182032Z 14014KT 29/11 A2963 RMK A01 T02870113  RH  034%=      5-min Rain = 0
KDO1 182033Z 14018KT 29/11 A2962 RMK A01 T02860113  RH  034%=      5-min Rain = 0
KDO1 182034Z 16017KT 29/11 A2962 RMK A01 T02850113  RH  034%=      5-min Rain = 0
KDO1 182035Z 16013KT 29/11 A2962 RMK A01 T02850113  RH  034%=      5-min Rain = 0
KDO1 182036Z 15014G19KT 29/11 A2962 RMK A01 T02870113  RH  034%=      5-min Rain = 0
KDO1 182037Z 16016KT 29/11 A2962 RMK A01 T02850113  RH  034%=      5-min Rain = 0
KDO1 182038Z 16014KT 28/11 A2962 RMK A01 T02840113  RH  034%=      5-min Rain = 0
KDO1 182039Z 15013KT 28/11 A2962 RMK A01 T02840113  RH  035%=      5-min Rain = 0
KDO1 182040Z 16016KT 29/11 A2962 RMK A01 T02850113  RH  034%=      5-min Rain = 0
KDO1 182041Z 16014KT 29/11 A2962 RMK A01 T02850113  RH  034%=      5-min Rain = 0
KDO1 182042Z 16011KT 28/11 A2962 RMK A01 T02840114  RH  035%=      5-min Rain = 0
KDO1 182043Z 15018KT 29/12 A2962 RMK A01 T02870115  RH  034%=      5-min Rain = 0
KDO1 182044Z 15017KT 29/12 A2962 RMK A01 T02880115  RH  034%=      5-min Rain = 0
KDO1 182045Z 14016KT 29/12 A2962 RMK A01 T02860115  RH  035%=      5-min Rain = 0
KDO1 182046Z 15015KT 29/11 A2962 RMK A01 T02860114  RH  035%=      5-min Rain = 0
KDO1 182047Z 16014KT 29/11 A2962 RMK A01 T02850114  RH  035%=      5-min Rain = 0
KDO1 182048Z 15012KT 29/11 A2962 RMK A01 T02850114  RH  035%=      5-min Rain = 0
KDO1 182049Z 16013KT 29/11 A2962 RMK A01 T02860114  RH  035%=      5-min Rain = 0
KDO1 182050Z 16014G19KT 29/12 A2962 RMK A01 T02880115  RH  034%=      5-min Rain = 0
KDO1 182051Z 16012KT 29/11 A2962 RMK A01 T02870114  RH  034%=      5-min Rain = 0
KDO1 182052Z 17012KT 29/11 A2962 RMK A01 T02850114  RH  035%=      5-min Rain = 0
KDO1 182053Z 17011KT 29/12 A2962 RMK A01 T02860115  RH  035%=      5-min Rain = 0
KDO1 182054Z 15012G17KT 29/11 A2962 RMK A01 T02890114  RH  034%=      5-min Rain = 0
KDO1 182055Z 15013KT 29/11 A2962 RMK A01 T02900113  RH  033%=      5-min Rain = 0
KDO1 182056Z 14016KT 29/11 A2961 RMK A01 T02900113  RH  033%=      5-min Rain = 0
KDO1 182057Z 15017G23KT 29/11 A2962 RMK A01 T02870112  RH  034%=      5-min Rain = 0
KDO1 182058Z 15016KT 29/11 A2962 RMK A01 T02860112  RH  034%=      5-min Rain = 0
KDO1 182059Z 16013KT 29/11 A2962 RMK A01 T02860113  RH  034%=      5-min Rain = 0
KDO1 182100Z 14014KT 29/11 A2961 RMK A01 T02860112  RH  034%=      5-min Rain = 0
KDO1 182101Z 16014G21KT 29/11 A2961 RMK A01 T02870112  RH  034%=      5-min Rain = 0
KDO1 182102Z 15016G22KT 29/11 A2961 RMK A01 T02870113  RH  034%=      5-min Rain = 0
KDO1 182103Z 17014KT 29/11 A2961 RMK A01 T02870113  RH  034%=      5-min Rain = 0
KDO1 182104Z 18013KT 29/11 A2961 RMK A01 T02870112  RH  034%=      5-min Rain = 0
KDO1 182105Z 16014KT 29/11 A2961 RMK A01 T02870113  RH  034%=      5-min Rain = 0
KDO1 182106Z 17018G23KT 29/11 A2961 RMK A01 T02890113  RH  034%=      5-min Rain = 0
KDO1 182107Z 17016G21KT 29/11 A2961 RMK A01 T02880113  RH  034%=      5-min Rain = 0
KDO1 182108Z 17013KT 29/11 A2961 RMK A01 T02860113  RH  034%=      5-min Rain = 0
KDO1 182109Z 17015G20KT 29/11 A2961 RMK A01 T02870114  RH  034%=      5-min Rain = 0
KDO1 182110Z 17017KT 29/11 A2961 RMK A01 T02880113  RH  034%=      5-min Rain = 0
KDO1 182111Z 16014G19KT 29/11 A2961 RMK A01 T02880114  RH  034%=      5-min Rain = 0
KDO1 182112Z 15014KT 29/11 A296 RMK A01 T02880114  RH  034%=      5-min Rain = 0
KDO1 182113Z 15012KT 29/11 A296 RMK A01 T02880114  RH  034%=      5-min Rain = 0
KDO1 182114Z 16009KT 29/12 A296 RMK A01 T02890115  RH  034%=      5-min Rain = 0
KDO1 182115Z 16013KT 29/12 A296 RMK A01 T02930116  RH  034%=      5-min Rain = 0
KDO1 182116Z 16013G18KT 30/12 A296 RMK A01 T02950116  RH  033%=      5-min Rain = 0
KDO1 182117Z 16015KT 30/12 A296 RMK A01 T02950116  RH  033%=      5-min Rain = 0
KDO1 182118Z 16014KT 29/12 A296 RMK A01 T02930115  RH  033%=      5-min Rain = 0
KDO1 182119Z 16016KT 29/12 A296 RMK A01 T02920115  RH  034%=      5-min Rain = 0
KDO1 182120Z 15013KT 29/12 A296 RMK A01 T02910115  RH  034%=      5-min Rain = 0
KDO1 182121Z 16014KT 29/12 A296 RMK A01 T02920115  RH  033%=      5-min Rain = 0
KDO1 182122Z 15016KT 29/12 A296 RMK A01 T02920115  RH  033%=      5-min Rain = 0
KDO1 182123Z 15017KT 29/12 A296 RMK A01 T02920115  RH  033%=      5-min Rain = 0
KDO1 182124Z 15014KT 29/12 A296 RMK A01 T02910115  RH  034%=      5-min Rain = 0
KDO1 182125Z 15013KT 29/12 A296 RMK A01 T02910115  RH  034%=      5-min Rain = 0
KDO1 182126Z 14015KT 29/12 A296 RMK A01 T02910116  RH  034%=      5-min Rain = 0
KDO1 182127Z 15014G19KT 29/12 A296 RMK A01 T02910115  RH  034%=      5-min Rain = 0
KDO1 182128Z 16019KT 29/12 A296 RMK A01 T02910116  RH  034%=      5-min Rain = 0
KDO1 182129Z 16014G20KT 29/12 A296 RMK A01 T02900116  RH  034%=      5-min Rain = 0
KDO1 182130Z 17014G21KT 29/12 A296 RMK A01 T02900116  RH  034%=      5-min Rain = 0
KDO1 182131Z 17014KT 29/12 A296 RMK A01 T02910117  RH  034%=      5-min Rain = 0
KDO1 182132Z 16011KT 29/12 A296 RMK A01 T02920118  RH  034%=      5-min Rain = 0
KDO1 182133Z 16011KT 29/12 A296 RMK A01 T02910117  RH  034%=      5-min Rain = 0
KDO1 182134Z 17012KT 29/12 A296 RMK A01 T02910117  RH  034%=      5-min Rain = 0
KDO1 182135Z 15013KT 29/12 A296 RMK A01 T02900118  RH  034%=      5-min Rain = 0
KDO1 182136Z 16013G20KT 29/12 A296 RMK A01 T02890117  RH  035%=      5-min Rain = 0
KDO1 182137Z 16017G23KT 29/12 A296 RMK A01 T02880118  RH  035%=      5-min Rain = 0
KDO1 182138Z 17017KT 29/12 A296 RMK A01 T02850117  RH  035%=      5-min Rain = 0
KDO1 182139Z 16016KT 28/12 A296 RMK A01 T02840117  RH  035%=      5-min Rain = 0
KDO1 182140Z 17013G18KT 28/12 A296 RMK A01 T02840117  RH  035%=      5-min Rain = 0
KDO1 182141Z 17014KT 28/12 A296 RMK A01 T02840116  RH  035%=      5-min Rain = 0
KDO1 182142Z 17014G19KT 28/12 A296 RMK A01 T02840116  RH  035%=      5-min Rain = 0
KDO1 182143Z 16011G17KT 28/12 A296 RMK A01 T02840116  RH  035%=      5-min Rain = 0
KDO1 182144Z 17015KT 28/12 A296 RMK A01 T02840117  RH  035%=      5-min Rain = 0
KDO1 182145Z 16012KT 28/12 A296 RMK A01 T02830116  RH  036%=      5-min Rain = 0
KDO1 182146Z 16012KT 28/12 A296 RMK A01 T02830117  RH  036%=      5-min Rain = 0
KDO1 182147Z 15012KT 28/12 A296 RMK A01 T02830117  RH  036%=      5-min Rain = 0
KDO1 182148Z 16014KT 28/12 A296 RMK A01 T02830116  RH  035%=      5-min Rain = 0
KDO1 182149Z 17016KT 29/12 A296 RMK A01 T02850117  RH  035%=      5-min Rain = 0
KDO1 182150Z 17017KT 29/12 A296 RMK A01 T02860117  RH  035%=      5-min Rain = 0
KDO1 182151Z 17013KT 29/12 A296 RMK A01 T02860117  RH  035%=      5-min Rain = 0
KDO1 182152Z 17015KT 29/12 A296 RMK A01 T02880117  RH  035%=      5-min Rain = 0
KDO1 182153Z 16013G18KT 29/12 A296 RMK A01 T02880118  RH  035%=      5-min Rain = 0
KDO1 182154Z 17015G21KT 29/12 A296 RMK A01 T02880118  RH  035%=      5-min Rain = 0
KDO1 182155Z 17014G20KT 29/12 A296 RMK A01 T02880117  RH  035%=      5-min Rain = 0
KDO1 182156Z 16018KT 29/12 A296 RMK A01 T02880117  RH  035%=      5-min Rain = 0
KDO1 182157Z 17018KT 29/12 A296 RMK A01 T02860115  RH  035%=      5-min Rain = 0
KDO1 182158Z 18012G18KT 28/12 A296 RMK A01 T02840115  RH  035%=      5-min Rain = 0
KDO1 182159Z 17012KT 28/12 A2961 RMK A01 T02830115  RH  035%=      5-min Rain = 0
KDO1 182200Z 18014KT 28/12 A2961 RMK A01 T02830115  RH  035%=      5-min Rain = 0
KDO1 182201Z 18013G18KT 28/12 A2961 RMK A01 T02830115  RH  035%=      5-min Rain = 0
KDO1 182202Z 17013KT 28/12 A2961 RMK A01 T02820115  RH  035%=      5-min Rain = 0
KDO1 182203Z 17015KT 28/12 A2961 RMK A01 T02820115  RH  035%=      5-min Rain = 0
KDO1 182204Z 17016KT 28/12 A2961 RMK A01 T02820115  RH  035%=      5-min Rain = 0
KDO1 182205Z 18013G18KT 28/12 A2961 RMK A01 T02820115  RH  035%=      5-min Rain = 0
KDO1 182206Z 18014KT 28/12 A2961 RMK A01 T02820115  RH  036%=      5-min Rain = 0
KDO1 182207Z 17014KT 28/12 A296 RMK A01 T02810115  RH  036%=      5-min Rain = 0
KDO1 182208Z 17014KT 28/12 A296 RMK A01 T02820115  RH  036%=      5-min Rain = 0
KDO1 182209Z 17014KT 28/12 A296 RMK A01 T02820115  RH  036%=      5-min Rain = 0
KDO1 182210Z 17014KT 28/12 A296 RMK A01 T02810115  RH  035%=      5-min Rain = 0
KDO1 182211Z 17012G17KT 28/12 A296 RMK A01 T02810115  RH  036%=      5-min Rain = 0
KDO1 182212Z 17011KT 28/11 A296 RMK A01 T02810114  RH  036%=      5-min Rain = 0
KDO1 182213Z 17011KT 28/11 A296 RMK A01 T02810114  RH  036%=      5-min Rain = 0
KDO1 182214Z 17011G16KT 28/12 A296 RMK A01 T02810115  RH  036%=      5-min Rain = 0
KDO1 182215Z 17011KT 28/11 A296 RMK A01 T02810114  RH  036%=      5-min Rain = 0
KDO1 182216Z 16012KT 28/11 A296 RMK A01 T02810114  RH  035%=      5-min Rain = 0
KDO1 182217Z 17010KT 28/11 A296 RMK A01 T02800113  RH  035%=      5-min Rain = 0
KDO1 182218Z 17011KT 28/11 A296 RMK A01 T02800114  RH  036%=      5-min Rain = 0
KDO1 182219Z 15015KT 28/11 A296 RMK A01 T02800114  RH  036%=      5-min Rain = 0
KDO1 182220Z 15016KT 28/11 A296 RMK A01 T02800114  RH  036%=      5-min Rain = 0
KDO1 182221Z 17013KT 28/12 A296 RMK A01 T02800115  RH  036%=      5-min Rain = 0
KDO1 182222Z 17012KT 28/12 A296 RMK A01 T02800115  RH  036%=      5-min Rain = 0
KDO1 182223Z 18012KT 28/12 A296 RMK A01 T02810116  RH  036%=      5-min Rain = 0
KDO1 182224Z 17010KT 28/12 A296 RMK A01 T02820118  RH  036%=      5-min Rain = 0
KDO1 182225Z 17011KT 28/12 A296 RMK A01 T02840118  RH  036%=      5-min Rain = 0
KDO1 182226Z 18011G16KT 29/12 A2959 RMK A01 T02860118  RH  035%=      5-min Rain = 0
KDO1 182227Z 17014KT 29/12 A2959 RMK A01 T02870118  RH  035%=      5-min Rain = 0
KDO1 182228Z 16015KT 29/12 A2959 RMK A01 T02880118  RH  035%=      5-min Rain = 0
KDO1 182229Z 18012G19KT 29/12 A2959 RMK A01 T02880118  RH  035%=      5-min Rain = 0
KDO1 182230Z 16010KT 29/12 A2959 RMK A01 T02880119  RH  035%=      5-min Rain = 0
KDO1 182231Z 16009KT 29/12 A2959 RMK A01 T02880118  RH  035%=      5-min Rain = 0
KDO1 182232Z 16014G20KT 29/12 A2959 RMK A01 T02870118  RH  035%=      5-min Rain = 0
KDO1 182233Z 16014KT 29/12 A2959 RMK A01 T02860118  RH  035%=      5-min Rain = 0
KDO1 182234Z 16013KT 28/12 A2959 RMK A01 T02840118  RH  036%=      5-min Rain = 0
KDO1 182235Z 17013KT 28/12 A2959 RMK A01 T02830118  RH  036%=      5-min Rain = 0
KDO1 182236Z 16013KT 28/12 A2959 RMK A01 T02820118  RH  036%=      5-min Rain = 0
KDO1 182237Z 17012KT 28/12 A2959 RMK A01 T02810119  RH  036%=      5-min Rain = 0
KDO1 182238Z 17012G17KT 28/12 A2959 RMK A01 T02810119  RH  037%=      5-min Rain = 0
KDO1 182239Z 17012KT 28/12 A2959 RMK A01 T02800119  RH  037%=      5-min Rain = 0
KDO1 182240Z 17012KT 28/12 A2959 RMK A01 T02790119  RH  037%=      5-min Rain = 0
KDO1 182241Z 17013KT 28/12 A2959 RMK A01 T02790119  RH  037%=      5-min Rain = 0
KDO1 182242Z 17012KT 28/12 A2959 RMK A01 T02780119  RH  037%=      5-min Rain = 0
KDO1 182243Z 17011KT 28/12 A2959 RMK A01 T02780119  RH  037%=      5-min Rain = 0
KDO1 182244Z 18014KT 28/12 A2959 RMK A01 T02770120  RH  038%=      5-min Rain = 0
KDO1 182245Z 17014KT 28/12 A2959 RMK A01 T02770120  RH  038%=      5-min Rain = 0
KDO1 182246Z 17012G19KT 28/12 A2959 RMK A01 T02760120  RH  038%=      5-min Rain = 0
KDO1 182247Z 17017KT 28/12 A2959 RMK A01 T02760120  RH  038%=      5-min Rain = 0
KDO1 182248Z 17012KT 28/12 A296 RMK A01 T02760120  RH  038%=      5-min Rain = 0
KDO1 182249Z 17017KT 28/12 A296 RMK A01 T02750121  RH  038%=      5-min Rain = 0
KDO1 182250Z 17012KT 28/12 A296 RMK A01 T02750122  RH  039%=      5-min Rain = 0
KDO1 182251Z 17013KT 28/12 A296 RMK A01 T02750122  RH  039%=      5-min Rain = 0
KDO1 182252Z 17014KT 28/12 A2959 RMK A01 T02760123  RH  039%=      5-min Rain = 0
KDO1 182253Z 17012KT 28/12 A2959 RMK A01 T02770123  RH  039%=      5-min Rain = 0
KDO1 182254Z 16012KT 28/13 A2959 RMK A01 T02770128  RH  040%=      5-min Rain = 0
KDO1 182255Z 17011KT 27/14 A2959 RMK A01 T02730141  RH  044%=      5-min Rain = 0
KDO1 182256Z 17012KT 27/15 A2959 RMK A01 T02660147  RH  048%=      5-min Rain = 0
KDO1 182257Z 17013KT 26/15 A2959 RMK A01 T02620145  RH  048%=      5-min Rain = 0
KDO1 182258Z 17012KT 26/14 A2959 RMK A01 T02610142  RH  048%=      5-min Rain = 0
KDO1 182259Z 16010KT 26/14 A2959 RMK A01 T02610142  RH  048%=      5-min Rain = 0
KDO1 182300Z 16009KT 26/14 A2959 RMK A01 T02600143  RH  048%=      5-min Rain = 0
KDO1 182301Z 17010KT 26/14 A2959 RMK A01 T02590144  RH  049%=      5-min Rain = 0
KDO1 182302Z 16011KT 26/14 A2959 RMK A01 T02580140  RH  048%=      5-min Rain = 0
KDO1 182303Z 17011KT 26/14 A2959 RMK A01 T02580138  RH  047%=      5-min Rain = 0
KDO1 182304Z 16011KT 26/14 A2959 RMK A01 T02580139  RH  048%=      5-min Rain = 0
KDO1 182305Z 16010KT 26/14 A2959 RMK A01 T02580138  RH  048%=      5-min Rain = 0
KDO1 182306Z 17010KT 26/14 A2959 RMK A01 T02580137  RH  047%=      5-min Rain = 0
KDO1 182307Z 17011KT 26/14 A2959 RMK A01 T02580137  RH  047%=      5-min Rain = 0
KDO1 182308Z 17010KT 26/14 A2959 RMK A01 T02580138  RH  047%=      5-min Rain = 0
KDO1 182309Z 17012KT 26/14 A2959 RMK A01 T02580138  RH  048%=      5-min Rain = 0
KDO1 182310Z 18010KT 26/14 A2959 RMK A01 T02570141  RH  049%=      5-min Rain = 0
KDO1 182311Z 17011KT 26/14 A2959 RMK A01 T02550142  RH  050%=      5-min Rain = 0
KDO1 182312Z 17010KT 25/14 A2959 RMK A01 T02530143  RH  050%=      5-min Rain = 0
KDO1 182313Z 17009KT 25/15 A2959 RMK A01 T02510145  RH  052%=      5-min Rain = 0
KDO1 182314Z 17011KT 25/15 A296 RMK A01 T02490146  RH  053%=      5-min Rain = 0
KDO1 182315Z 17012G17KT 25/15 A296 RMK A01 T02470148  RH  054%=      5-min Rain = 0
KDO1 182316Z 17012KT 25/15 A296 RMK A01 T02450150  RH  055%=      5-min Rain = 0
KDO1 182317Z 16012KT 24/16 A296 RMK A01 T02420157  RH  059%=      5-min Rain = 0
KDO1 182318Z 16013KT 24/16 A296 RMK A01 T02370160  RH  062%=      5-min Rain = 0
KDO1 182319Z 17013G18KT 23/16 A296 RMK A01 T02320158  RH  063%=      5-min Rain = 0
KDO1 182320Z 17016G21KT 23/16 A296 RMK A01 T02290159  RH  065%=      5-min Rain = 0
KDO1 182321Z 18015KT 22/16 A296 RMK A01 T02240158  RH  067%=      5-min Rain = 0
KDO1 182322Z 18012KT 22/16 A2959 RMK A01 T02170163  RH  072%=      5-min Rain = 0
KDO1 182323Z 18012KT 21/16 A296 RMK A01 T02110163  RH  074%=      5-min Rain = 0.01
KDO1 182324Z 18012KT 21/16 A296 RMK A01 T02080162  RH  075%=      5-min Rain = 0
KDO1 182325Z 18010KT 21/16 A296 RMK A01 T02070162  RH  076%=      5-min Rain = 0
KDO1 182326Z 19009KT 21/17 A296 RMK A01 T02060165  RH  077%=      5-min Rain = 0
KDO1 182327Z 19008KT 21/17 A296 RMK A01 T02060167  RH  078%=      5-min Rain = 0
KDO1 182328Z 19008KT 21/17 A296 RMK A01 T02060169  RH  079%=      5-min Rain = 0
KDO1 182329Z 18007KT 21/17 A296 RMK A01 T02060169  RH  079%=      5-min Rain = 0
KDO1 182330Z 18007KT 21/17 A296 RMK A01 T02070170  RH  079%=      5-min Rain = 0
KDO1 182331Z 18008KT 21/17 A296 RMK A01 T02080170  RH  079%=      5-min Rain = 0
KDO1 182332Z 17010KT 21/17 A296 RMK A01 T02080169  RH  078%=      5-min Rain = 0.01
KDO1 182333Z 17009KT 21/17 A296 RMK A01 T02080167  RH  077%=      5-min Rain = 0.01
KDO1 182334Z 17009KT 21/17 A296 RMK A01 T02070169  RH  079%=      5-min Rain = 0
KDO1 182335Z 17010KT 21/17 A296 RMK A01 T02070169  RH  079%=      5-min Rain = 0
KDO1 182336Z 17010KT 21/17 A296 RMK A01 T02070168  RH  079%=      5-min Rain = 0
KDO1 182337Z 17010KT 21/17 A296 RMK A01 T02070167  RH  078%=      5-min Rain = 0
KDO1 182338Z 17010KT 21/17 A296 RMK A01 T02080166  RH  077%=      5-min Rain = 0
KDO1 182339Z 16010KT 21/17 A296 RMK A01 T02090166  RH  076%=      5-min Rain = 0
KDO1 182340Z 16009KT 21/16 A296 RMK A01 T02100163  RH  075%=      5-min Rain = 0
KDO1 182341Z 16009KT 21/16 A296 RMK A01 T02120160  RH  072%=      5-min Rain = 0
KDO1 182342Z 16011KT 22/16 A296 RMK A01 T02150157  RH  069%=      5-min Rain = 0
KDO1 182343Z 16011KT 22/15 A2961 RMK A01 T02170154  RH  067%=      5-min Rain = 0
KDO1 182344Z 16010KT 22/16 A2961 RMK A01 T02190155  RH  067%=      5-min Rain = 0
KDO1 182345Z 15010KT 22/16 A2961 RMK A01 T02200155  RH  067%=      5-min Rain = 0
KDO1 182346Z 16010KT 22/15 A296 RMK A01 T02190154  RH  066%=      5-min Rain = 0
KDO1 182347Z 16009KT 22/15 A296 RMK A01 T02200151  RH  065%=      5-min Rain = 0
KDO1 182348Z 16009KT 22/15 A296 RMK A01 T02220151  RH  064%=      5-min Rain = 0
KDO1 182349Z 16008KT 22/15 A296 RMK A01 T02220154  RH  065%=      5-min Rain = 0
KDO1 182350Z 16006KT 22/15 A296 RMK A01 T02220154  RH  065%=      5-min Rain = 0
KDO1 182351Z 16007KT 22/15 A296 RMK A01 T02210154  RH  066%=      5-min Rain = 0
KDO1 182352Z 16006KT 22/15 A296 RMK A01 T02200154  RH  066%=      5-min Rain = 0
KDO1 182353Z 15005KT 22/16 A296 RMK A01 T02190155  RH  067%=      5-min Rain = 0
KDO1 182354Z 16005KT 22/16 A296 RMK A01 T02190155  RH  067%=      5-min Rain = 0
KDO1 182355Z 15005KT 22/16 A296 RMK A01 T02180155  RH  067%=      5-min Rain = 0
KDO1 182356Z 14005KT 22/16 A296 RMK A01 T02170157  RH  068%=      5-min Rain = 0
KDO1 182357Z 13005KT 22/16 A296 RMK A01 T02170156  RH  069%=      5-min Rain = 0
KDO1 182358Z 12005KT 22/16 A296 RMK A01 T02160156  RH  069%=      5-min Rain = 0
KDO1 182359Z 12005KT 22/16 A296 RMK A01 T02160157  RH  069%=      5-min Rain = 0
KDO1 190000Z 12005KT 22/16 A296 RMK A01 T02150158  RH  070%=      5-min Rain = 0
KDO1 190001Z 11006KT 21/16 A296 RMK A01 T02140157  RH  070%=      5-min Rain = 0
KDO1 190002Z 11005KT 21/16 A296 RMK A01 T02140159  RH  071%=      5-min Rain = 0
KDO1 190003Z 12005KT 21/16 A296 RMK A01 T02130160  RH  072%=      5-min Rain = 0
KDO1 190004Z 12005KT 21/16 A296 RMK A01 T02130161  RH  072%=      5-min Rain = 0
KDO1 190005Z 12005KT 21/16 A296 RMK A01 T02120160  RH  072%=      5-min Rain = 0
KDO1 190006Z 12005KT 21/16 A296 RMK A01 T02120161  RH  073%=      5-min Rain = 0
KDO1 190007Z 12005KT 21/16 A296 RMK A01 T02120162  RH  073%=      5-min Rain = 0
KDO1 190008Z 12005KT 21/16 A296 RMK A01 T02110162  RH  073%=      5-min Rain = 0
KDO1 190009Z 12006KT 21/16 A2961 RMK A01 T02110163  RH  074%=      5-min Rain = 0
KDO1 190010Z 12007KT 21/16 A296 RMK A01 T02100162  RH  074%=      5-min Rain = 0
KDO1 190011Z 12007KT 21/16 A2961 RMK A01 T02100160  RH  073%=      5-min Rain = 0
KDO1 190012Z 12008KT 21/16 A2961 RMK A01 T02110156  RH  071%=      5-min Rain = 0
KDO1 190013Z 12005KT 21/16 A2961 RMK A01 T02130156  RH  070%=      5-min Rain = 0
KDO1 190014Z 11004KT 21/16 A2961 RMK A01 T02140156  RH  070%=      5-min Rain = 0
KDO1 190015Z 12005KT 21/16 A2961 RMK A01 T02140159  RH  071%=      5-min Rain = 0
KDO1 190016Z 12004KT 21/16 A2961 RMK A01 T02140157  RH  070%=      5-min Rain = 0
KDO1 190017Z 10003KT 21/16 A2961 RMK A01 T02140158  RH  070%=      5-min Rain = 0
KDO1 190018Z 10003KT 21/16 A2961 RMK A01 T02140159  RH  071%=      5-min Rain = 0
KDO1 190019Z 11004KT 21/16 A2961 RMK A01 T02140159  RH  071%=      5-min Rain = 0
KDO1 190020Z 09003KT 21/16 A2961 RMK A01 T02140158  RH  070%=      5-min Rain = 0
KDO1 190021Z 09003KT 21/16 A2961 RMK A01 T02130158  RH  071%=      5-min Rain = 0
KDO1 190022Z 09004KT 21/16 A2961 RMK A01 T02130160  RH  072%=      5-min Rain = 0
KDO1 190023Z 07005KT 21/16 A2961 RMK A01 T02120160  RH  072%=      5-min Rain = 0.01
KDO1 190024Z 08006KT 21/16 A2961 RMK A01 T02090157  RH  072%=      5-min Rain = 0
KDO1 190025Z 08007KT 21/15 A2961 RMK A01 T02070154  RH  072%=      5-min Rain = 0
KDO1 190026Z 09007KT 21/15 A2961 RMK A01 T02060152  RH  071%=      5-min Rain = 0
KDO1 190027Z 09007KT 21/15 A2961 RMK A01 T02050150  RH  071%=      5-min Rain = 0
KDO1 190028Z 08008KT 20/15 A296 RMK A01 T02040151  RH  071%=      5-min Rain = 0
KDO1 190029Z 08007KT 20/15 A296 RMK A01 T02030147  RH  070%=      5-min Rain = 0
KDO1 190030Z 09007KT 20/15 A296 RMK A01 T02040145  RH  069%=      5-min Rain = 0
KDO1 190031Z 09009KT 21/14 A296 RMK A01 T02050143  RH  068%=      5-min Rain = 0
KDO1 190032Z 09007KT 21/14 A296 RMK A01 T02060143  RH  067%=      5-min Rain = 0
KDO1 190033Z 08006KT 21/14 A2961 RMK A01 T02060144  RH  067%=      5-min Rain = 0
KDO1 190034Z 09006KT 21/15 A2961 RMK A01 T02060145  RH  068%=      5-min Rain = 0
KDO1 190035Z 09007KT 21/14 A2961 RMK A01 T02060142  RH  066%=      5-min Rain = 0
KDO1 190036Z 08006KT 21/14 A2961 RMK A01 T02070140  RH  066%=      5-min Rain = 0
KDO1 190037Z 09005KT 21/14 A2961 RMK A01 T02070142  RH  066%=      5-min Rain = 0
KDO1 190038Z 09006KT 21/14 A2961 RMK A01 T02070138  RH  064%=      5-min Rain = 0
KDO1 190039Z 11004KT 21/14 A2961 RMK A01 T02090138  RH  064%=      5-min Rain = 0
KDO1 190040Z 10002KT 21/14 A2962 RMK A01 T02100140  RH  064%=      5-min Rain = 0
KDO1 190041Z 08000KT 21/14 A2962 RMK A01 T02100140  RH  064%=      5-min Rain = 0
KDO1 190042Z 05000KT 21/14 A2962 RMK A01 T02100141  RH  065%=      5-min Rain = 0
KDO1 190043Z 07001KT 21/14 A2962 RMK A01 T02090139  RH  064%=      5-min Rain = 0
KDO1 190044Z 02002KT 21/14 A2962 RMK A01 T02090138  RH  064%=      5-min Rain = 0
KDO1 190045Z 05003KT 21/14 A2962 RMK A01 T02090137  RH  064%=      5-min Rain = 0
KDO1 190046Z 03003KT 21/14 A2962 RMK A01 T02100136  RH  063%=      5-min Rain = 0
KDO1 190047Z 03003KT 21/14 A2962 RMK A01 T02110141  RH  064%=      5-min Rain = 0
KDO1 190048Z 04002KT 21/14 A2963 RMK A01 T02100141  RH  064%=      5-min Rain = 0
KDO1 190049Z 05003KT 21/14 A2963 RMK A01 T02100141  RH  064%=      5-min Rain = 0
KDO1 190050Z 06003KT 21/14 A2963 RMK A01 T02100140  RH  064%=      5-min Rain = 0
KDO1 190051Z 06003KT 21/14 A2963 RMK A01 T02100138  RH  063%=      5-min Rain = 0
KDO1 190052Z 09005KT 21/14 A2963 RMK A01 T02100136  RH  063%=      5-min Rain = 0
KDO1 190053Z 09004KT 21/14 A2963 RMK A01 T02100135  RH  062%=      5-min Rain = 0
KDO1 190054Z 09004KT 21/13 A2964 RMK A01 T02100132  RH  061%=      5-min Rain = 0
KDO1 190055Z 09003KT 21/13 A2964 RMK A01 T02110133  RH  061%=      5-min Rain = 0
KDO1 190056Z 09005KT 21/13 A2964 RMK A01 T02120129  RH  059%=      5-min Rain = 0.01
KDO1 190057Z 08002KT 21/13 A2964 RMK A01 T02130132  RH  060%=      5-min Rain = 0
KDO1 190058Z 09003KT 21/13 A2964 RMK A01 T02140130  RH  059%=      5-min Rain = 0.01
KDO1 190059Z 08004KT 21/14 A2964 RMK A01 T02140136  RH  061%=      5-min Rain = 0
KDO1 190100Z 06002KT 21/14 A2964 RMK A01 T02130136  RH  062%=      5-min Rain = 0.01
KDO1 190101Z 07006KT 21/14 A2964 RMK A01 T02100139  RH  064%=      5-min Rain = 0
KDO1 190102Z 08005KT 21/14 A2964 RMK A01 T02080140  RH  065%=      5-min Rain = 0
KDO1 190103Z 06004KT 21/14 A2964 RMK A01 T02060135  RH  064%=      5-min Rain = 0
KDO1 190104Z 06005G10KT 21/14 A2964 RMK A01 T02060137  RH  065%=      5-min Rain = 0
KDO1 190105Z 08007KT 21/13 A2964 RMK A01 T02060133  RH  063%=      5-min Rain = 0
KDO1 190106Z 08008KT 21/13 A2964 RMK A01 T02070133  RH  063%=      5-min Rain = 0
KDO1 190107Z 09008KT 21/13 A2964 RMK A01 T02080131  RH  061%=      5-min Rain = 0.01
KDO1 190108Z 09008KT 21/13 A2964 RMK A01 T02090134  RH  062%=      5-min Rain = 0
KDO1 190109Z 09008KT 21/14 A2963 RMK A01 T02090135  RH  063%=      5-min Rain = 0
KDO1 190110Z 11007KT 21/13 A2963 RMK A01 T02080133  RH  062%=      5-min Rain = 0
KDO1 190111Z 12008KT 21/14 A2963 RMK A01 T02070138  RH  065%=      5-min Rain = 0
KDO1 190112Z 08007KT 21/14 A2963 RMK A01 T02050140  RH  066%=      5-min Rain = 0
KDO1 190113Z 10009KT 20/14 A2963 RMK A01 T02020144  RH  069%=      5-min Rain = 0.01
KDO1 190114Z 11008KT 20/15 A2963 RMK A01 T01990145  RH  071%=      5-min Rain = 0
KDO1 190115Z 11009KT 20/15 A2963 RMK A01 T01960145  RH  072%=      5-min Rain = 0
KDO1 190116Z 12009KT 19/15 A2963 RMK A01 T01940147  RH  074%=      5-min Rain = 0
KDO1 190117Z 12013KT 19/14 A2963 RMK A01 T01930143  RH  073%=      5-min Rain = 0
KDO1 190118Z 11010KT 19/14 A2963 RMK A01 T01930140  RH  071%=      5-min Rain = 0
KDO1 190119Z 11009KT 19/14 A2964 RMK A01 T01940139  RH  071%=      5-min Rain = 0
KDO1 190120Z 17006KT 20/14 A2964 RMK A01 T01950142  RH  072%=      5-min Rain = 0
KDO1 190121Z 15006KT 20/14 A2964 RMK A01 T01950143  RH  072%=      5-min Rain = 0
KDO1 190122Z 13008KT 19/15 A2964 RMK A01 T01940146  RH  074%=      5-min Rain = 0
KDO1 190123Z 14010KT 19/15 A2963 RMK A01 T01920149  RH  076%=      5-min Rain = 0.02
KDO1 190124Z 12012KT 19/15 A2963 RMK A01 T01910146  RH  075%=      5-min Rain = 0
KDO1 190125Z 12016G21KT 19/15 A2963 RMK A01 T01900146  RH  076%=      5-min Rain = 0
KDO1 190126Z 11013KT 19/15 A2963 RMK A01 T01900145  RH  075%=      5-min Rain = 0
KDO1 190127Z 12013KT 19/15 A2963 RMK A01 T01900148  RH  077%=      5-min Rain = 0
KDO1 190128Z 11010KT 19/15 A2963 RMK A01 T01890145  RH  076%=      5-min Rain = 0
KDO1 190129Z 11011KT 19/15 A2963 RMK A01 T01890146  RH  076%=      5-min Rain = 0
KDO1 190130Z 13014KT 19/14 A2963 RMK A01 T01880143  RH  075%=      5-min Rain = 0
KDO1 190131Z 13013KT 19/15 A2963 RMK A01 T01890145  RH  075%=      5-min Rain = 0
KDO1 190132Z 13013G18KT 19/15 A2963 RMK A01 T01890148  RH  077%=      5-min Rain = 0
KDO1 190133Z 12013G18KT 19/15 A2962 RMK A01 T01880147  RH  077%=      5-min Rain = 0
KDO1 190134Z 12017KT 19/14 A2962 RMK A01 T01870144  RH  076%=      5-min Rain = 0
KDO1 190135Z 12015KT 19/14 A2962 RMK A01 T01880144  RH  075%=      5-min Rain = 0
KDO1 190136Z 12014G19KT 19/14 A2962 RMK A01 T01890144  RH  075%=      5-min Rain = 0
KDO1 190137Z 11016KT 19/14 A2962 RMK A01 T01900144  RH  075%=      5-min Rain = 0
KDO1 190138Z 12011KT 19/14 A2962 RMK A01 T01900144  RH  075%=      5-min Rain = 0
KDO1 190139Z 12013KT 19/14 A2962 RMK A01 T01900144  RH  075%=      5-min Rain = 0
KDO1 190140Z 11010KT 19/14 A2962 RMK A01 T01900144  RH  075%=      5-min Rain = 0
KDO1 190141Z 12011KT 19/15 A2962 RMK A01 T01890145  RH  075%=      5-min Rain = 0
KDO1 190142Z 12013G18KT 19/14 A2962 RMK A01 T01890144  RH  075%=      5-min Rain = 0
KDO1 190143Z 12013KT 19/14 A2963 RMK A01 T01890142  RH  074%=      5-min Rain = 0
KDO1 190144Z 12014KT 19/14 A2963 RMK A01 T01900143  RH  074%=      5-min Rain = 0
KDO1 190145Z 12012KT 19/14 A2963 RMK A01 T01910141  RH  073%=      5-min Rain = 0
KDO1 190146Z 12013KT 19/14 A2963 RMK A01 T01920141  RH  072%=      5-min Rain = 0
KDO1 190147Z 11012KT 19/14 A2963 RMK A01 T01920141  RH  072%=      5-min Rain = 0
KDO1 190148Z 11015KT 19/14 A2963 RMK A01 T01930141  RH  072%=      5-min Rain = 0
KDO1 190149Z 12015G20KT 19/14 A2962 RMK A01 T01930139  RH  071%=      5-min Rain = 0
KDO1 190150Z 12013KT 19/14 A2962 RMK A01 T01940140  RH  071%=      5-min Rain = 0
KDO1 190151Z 11011KT 19/14 A2962 RMK A01 T01940141  RH  071%=      5-min Rain = 0
KDO1 190152Z 12012KT 19/14 A2962 RMK A01 T01930141  RH  071%=      5-min Rain = 0
KDO1 190153Z 12011G16KT 19/14 A2962 RMK A01 T01930140  RH  071%=      5-min Rain = 0
KDO1 190154Z 11009KT 19/14 A2962 RMK A01 T01940139  RH  071%=      5-min Rain = 0
KDO1 190155Z 11008KT 19/14 A2962 RMK A01 T01940141  RH  071%=      5-min Rain = 0
KDO1 190156Z 11008KT 19/14 A2962 RMK A01 T01930141  RH  072%=      5-min Rain = 0
KDO1 190157Z 11009KT 19/14 A2962 RMK A01 T01920141  RH  072%=      5-min Rain = 0
KDO1 190158Z 11008KT 19/14 A2961 RMK A01 T01910140  RH  072%=      5-min Rain = 0
KDO1 190159Z 11008KT 19/14 A2961 RMK A01 T01910139  RH  072%=      5-min Rain = 0
KDO1 190200Z 12008KT 19/14 A2961 RMK A01 T01920138  RH  071%=      5-min Rain = 0
KDO1 190201Z 11009KT 19/14 A2962 RMK A01 T01920138  RH  071%=      5-min Rain = 0
KDO1 190202Z 12009KT 19/14 A2962 RMK A01 T01930137  RH  070%=      5-min Rain = 0
KDO1 190203Z 12009KT 19/14 A2962 RMK A01 T01940139  RH  071%=      5-min Rain = 0
KDO1 190204Z 13007G12KT 19/14 A2962 RMK A01 T01930139  RH  070%=      5-min Rain = 0
KDO1 190205Z 12007KT 19/14 A2962 RMK A01 T01930139  RH  071%=      5-min Rain = 0
KDO1 190206Z 12008KT 19/14 A2962 RMK A01 T01920140  RH  072%=      5-min Rain = 0
KDO1 190207Z 12006KT 19/14 A2962 RMK A01 T01910141  RH  073%=      5-min Rain = 0
KDO1 190208Z 12007KT 19/14 A2962 RMK A01 T01890142  RH  074%=      5-min Rain = 0
KDO1 190209Z 13007KT 19/14 A2962 RMK A01 T01880141  RH  074%=      5-min Rain = 0
KDO1 190210Z 12009KT 19/14 A2962 RMK A01 T01870141  RH  075%=      5-min Rain = 0
KDO1 190211Z 12008KT 19/14 A2962 RMK A01 T01860140  RH  074%=      5-min Rain = 0
KDO1 190212Z 12007KT 19/14 A2962 RMK A01 T01860141  RH  075%=      5-min Rain = 0
KDO1 190213Z 12008KT 19/14 A2962 RMK A01 T01860141  RH  075%=      5-min Rain = 0
KDO1 190214Z 11006KT 19/14 A2962 RMK A01 T01860141  RH  075%=      5-min Rain = 0
KDO1 190215Z 11005KT 19/14 A2962 RMK A01 T01850142  RH  076%=      5-min Rain = 0
KDO1 190216Z 12004KT 18/14 A2962 RMK A01 T01840142  RH  076%=      5-min Rain = 0
KDO1 190217Z 11004KT 18/14 A2962 RMK A01 T01840142  RH  076%=      5-min Rain = 0
KDO1 190218Z 12003KT 18/14 A2962 RMK A01 T01830140  RH  076%=      5-min Rain = 0
KDO1 190219Z 13004KT 18/14 A2962 RMK A01 T01830140  RH  076%=      5-min Rain = 0
KDO1 190220Z 14004KT 18/14 A2962 RMK A01 T01840140  RH  076%=      5-min Rain = 0
KDO1 190221Z 13003KT 18/14 A2962 RMK A01 T01840140  RH  076%=      5-min Rain = 0
KDO1 190222Z 12004KT 18/14 A2962 RMK A01 T01840141  RH  076%=      5-min Rain = 0
KDO1 190223Z 13004KT 18/14 A2962 RMK A01 T01840140  RH  075%=      5-min Rain = 0
KDO1 190224Z 13004KT 18/14 A2962 RMK A01 T01840140  RH  075%=      5-min Rain = 0
KDO1 190225Z 13003KT 18/14 A2962 RMK A01 T01840140  RH  075%=      5-min Rain = 0
KDO1 190226Z 12002KT 18/14 A2962 RMK A01 T01840139  RH  075%=      5-min Rain = 0
KDO1 190227Z 12004KT 18/14 A2962 RMK A01 T01840139  RH  075%=      5-min Rain = 0
KDO1 190228Z 13003KT 19/14 A2962 RMK A01 T01850139  RH  074%=      5-min Rain = 0
KDO1 190229Z 11005KT 19/14 A2962 RMK A01 T01850138  RH  074%=      5-min Rain = 0
KDO1 190230Z 12006KT 19/14 A2962 RMK A01 T01860138  RH  074%=      5-min Rain = 0
KDO1 190231Z 12005KT 19/14 A2963 RMK A01 T01860138  RH  073%=      5-min Rain = 0
KDO1 190232Z 13006KT 19/14 A2963 RMK A01 T01870137  RH  072%=      5-min Rain = 0
KDO1 190233Z 12004KT 19/14 A2963 RMK A01 T01890136  RH  071%=      5-min Rain = 0
KDO1 190234Z 13005KT 19/14 A2963 RMK A01 T01900137  RH  071%=      5-min Rain = 0
KDO1 190235Z 12005KT 19/14 A2963 RMK A01 T01910139  RH  072%=      5-min Rain = 0
KDO1 190236Z 12006KT 19/14 A2963 RMK A01 T01910137  RH  071%=      5-min Rain = 0
KDO1 190237Z 12006KT 19/14 A2963 RMK A01 T01920138  RH  071%=      5-min Rain = 0
KDO1 190238Z 12005KT 19/14 A2963 RMK A01 T01920138  RH  071%=      5-min Rain = 0
KDO1 190239Z 12007KT 19/14 A2963 RMK A01 T01920139  RH  071%=      5-min Rain = 0
KDO1 190240Z 11006KT 19/14 A2963 RMK A01 T01920139  RH  071%=      5-min Rain = 0
KDO1 190241Z 12005KT 19/14 A2963 RMK A01 T01920138  RH  071%=      5-min Rain = 0
KDO1 190242Z 13005KT 19/14 A2963 RMK A01 T01920139  RH  071%=      5-min Rain = 0
KDO1 190243Z 13005KT 19/14 A2964 RMK A01 T01920139  RH  071%=      5-min Rain = 0
KDO1 190244Z 14005KT 19/14 A2964 RMK A01 T01920139  RH  072%=      5-min Rain = 0
KDO1 190245Z 12004KT 19/14 A2964 RMK A01 T01920139  RH  071%=      5-min Rain = 0
KDO1 190246Z 14003KT 19/14 A2964 RMK A01 T01910138  RH  071%=      5-min Rain = 0
KDO1 190247Z 14003KT 19/14 A2964 RMK A01 T01910139  RH  071%=      5-min Rain = 0
KDO1 190248Z 15003KT 19/14 A2964 RMK A01 T01910139  RH  071%=      5-min Rain = 0
KDO1 190249Z 14004KT 19/14 A2964 RMK A01 T01920138  RH  071%=      5-min Rain = 0
KDO1 190250Z 14004KT 19/14 A2965 RMK A01 T01910138  RH  071%=      5-min Rain = 0
KDO1 190251Z 14004KT 19/14 A2965 RMK A01 T01910137  RH  071%=      5-min Rain = 0
KDO1 190252Z 13005KT 19/14 A2965 RMK A01 T01920137  RH  070%=      5-min Rain = 0
KDO1 190253Z 13004KT 19/14 A2965 RMK A01 T01920138  RH  071%=      5-min Rain = 0
KDO1 190254Z 11004KT 19/14 A2965 RMK A01 T01920138  RH  071%=      5-min Rain = 0
KDO1 190255Z 10004KT 19/14 A2965 RMK A01 T01920137  RH  070%=      5-min Rain = 0
KDO1 190256Z 09005KT 19/14 A2965 RMK A01 T01920138  RH  070%=      5-min Rain = 0
KDO1 190257Z 10004KT 19/14 A2965 RMK A01 T01920137  RH  070%=      5-min Rain = 0
KDO1 190258Z 12004KT 19/14 A2965 RMK A01 T01920137  RH  070%=      5-min Rain = 0
KDO1 190259Z 12002KT 19/14 A2965 RMK A01 T01930137  RH  070%=      5-min Rain = 0
KDO1 190300Z 10002KT 19/14 A2965 RMK A01 T01930137  RH  070%=      5-min Rain = 0
KDO1 190301Z 13002KT 19/14 A2965 RMK A01 T01930137  RH  070%=      5-min Rain = 0
KDO1 190302Z 10003KT 19/14 A2965 RMK A01 T01930136  RH  070%=      5-min Rain = 0
KDO1 190303Z 10003KT 19/14 A2965 RMK A01 T01930136  RH  069%=      5-min Rain = 0
KDO1 190304Z 12003KT 19/14 A2965 RMK A01 T01930136  RH  069%=      5-min Rain = 0
KDO1 190305Z 12003KT 19/14 A2965 RMK A01 T01940136  RH  069%=      5-min Rain = 0
KDO1 190306Z 15002KT 19/14 A2965 RMK A01 T01940135  RH  069%=      5-min Rain = 0
KDO1 190307Z 12002KT 19/14 A2965 RMK A01 T01940136  RH  069%=      5-min Rain = 0
KDO1 190308Z 12004KT 19/14 A2965 RMK A01 T01940136  RH  069%=      5-min Rain = 0
KDO1 190309Z 13002KT 19/14 A2965 RMK A01 T01940135  RH  069%=      5-min Rain = 0
KDO1 190310Z 14003KT 19/14 A2965 RMK A01 T01940135  RH  069%=      5-min Rain = 0
KDO1 190311Z 14003KT 19/14 A2965 RMK A01 T01940136  RH  069%=      5-min Rain = 0
KDO1 190312Z 13003KT 19/14 A2965 RMK A01 T01940137  RH  070%=      5-min Rain = 0
KDO1 190313Z 13005KT 19/14 A2965 RMK A01 T01930137  RH  070%=      5-min Rain = 0
KDO1 190314Z 14004KT 19/14 A2965 RMK A01 T01930136  RH  069%=      5-min Rain = 0
KDO1 190315Z 13005KT 19/14 A2965 RMK A01 T01930136  RH  070%=      5-min Rain = 0
KDO1 190316Z 12004KT 19/14 A2966 RMK A01 T01920138  RH  070%=      5-min Rain = 0
KDO1 190317Z 14004KT 19/14 A2966 RMK A01 T01910137  RH  071%=      5-min Rain = 0
KDO1 190318Z 15004KT 19/14 A2966 RMK A01 T01910137  RH  071%=      5-min Rain = 0
KDO1 190319Z 17004KT 19/14 A2966 RMK A01 T01900137  RH  071%=      5-min Rain = 0
KDO1 190320Z 16004KT 19/14 A2967 RMK A01 T01900137  RH  071%=      5-min Rain = 0
KDO1 190321Z 16005KT 19/14 A2967 RMK A01 T01900137  RH  071%=      5-min Rain = 0
KDO1 190322Z 16005KT 19/14 A2967 RMK A01 T01900138  RH  072%=      5-min Rain = 0
KDO1 190323Z 16006KT 19/14 A2967 RMK A01 T01900137  RH  072%=      5-min Rain = 0
KDO1 190324Z 15005KT 19/14 A2967 RMK A01 T01900137  RH  072%=      5-min Rain = 0
KDO1 190325Z 15004KT 19/14 A2967 RMK A01 T01900138  RH  072%=      5-min Rain = 0
KDO1 190326Z 15005KT 19/14 A2967 RMK A01 T01890138  RH  072%=      5-min Rain = 0
KDO1 190327Z 16005KT 19/14 A2967 RMK A01 T01890138  RH  073%=      5-min Rain = 0
KDO1 190328Z 16005KT 19/14 A2967 RMK A01 T01880139  RH  073%=      5-min Rain = 0
KDO1 190329Z 16005KT 19/14 A2967 RMK A01 T01870139  RH  073%=      5-min Rain = 0
KDO1 190330Z 17004KT 19/14 A2967 RMK A01 T01870139  RH  073%=      5-min Rain = 0
KDO1 190331Z 18006KT 19/14 A2967 RMK A01 T01870140  RH  074%=      5-min Rain = 0
KDO1 190332Z 17007KT 19/14 A2967 RMK A01 T01870138  RH  073%=      5-min Rain = 0
KDO1 190333Z 18003KT 19/14 A2967 RMK A01 T01880139  RH  073%=      5-min Rain = 0
KDO1 190334Z 19004KT 19/14 A2967 RMK A01 T01880140  RH  073%=      5-min Rain = 0
KDO1 190335Z 19004KT 19/14 A2967 RMK A01 T01880139  RH  073%=      5-min Rain = 0
KDO1 190336Z 23004KT 19/14 A2968 RMK A01 T01880141  RH  074%=      5-min Rain = 0
KDO1 190337Z 27004KT 19/14 A2968 RMK A01 T01850142  RH  076%=      5-min Rain = 0
KDO1 190338Z 26004KT 18/14 A2968 RMK A01 T01830144  RH  078%=      5-min Rain = 0
KDO1 190339Z 27005KT 18/14 A2968 RMK A01 T01810144  RH  079%=      5-min Rain = 0
KDO1 190340Z 27005KT 18/14 A2968 RMK A01 T01790143  RH  079%=      5-min Rain = 0
KDO1 190341Z 24002KT 18/14 A2969 RMK A01 T01790144  RH  080%=      5-min Rain = 0
KDO1 190342Z 27002KT 18/14 A2969 RMK A01 T01790142  RH  079%=      5-min Rain = 0
KDO1 190343Z 24003KT 18/14 A2968 RMK A01 T01790141  RH  078%=      5-min Rain = 0
KDO1 190344Z 23003KT 18/14 A2968 RMK A01 T01810141  RH  078%=      5-min Rain = 0
KDO1 190345Z 21002KT 18/14 A2968 RMK A01 T01810141  RH  077%=      5-min Rain = 0
KDO1 190346Z 20002KT 18/14 A2968 RMK A01 T01820141  RH  077%=      5-min Rain = 0
KDO1 190347Z 20003KT 18/14 A2968 RMK A01 T01820141  RH  077%=      5-min Rain = 0
KDO1 190348Z 23003KT 18/14 A2969 RMK A01 T01840139  RH  075%=      5-min Rain = 0
KDO1 190349Z 23004KT 19/14 A2969 RMK A01 T01850140  RH  075%=      5-min Rain = 0
KDO1 190350Z 22005KT 19/14 A2969 RMK A01 T01860142  RH  076%=      5-min Rain = 0
KDO1 190351Z 22006KT 19/14 A2969 RMK A01 T01850142  RH  076%=      5-min Rain = 0
KDO1 190352Z 21007KT 18/14 A2969 RMK A01 T01840143  RH  077%=      5-min Rain = 0
KDO1 190353Z 20006KT 18/14 A2969 RMK A01 T01840143  RH  077%=      5-min Rain = 0
KDO1 190354Z 18006KT 18/14 A2969 RMK A01 T01840142  RH  077%=      5-min Rain = 0
KDO1 190355Z 18005KT 18/14 A2969 RMK A01 T01840142  RH  077%=      5-min Rain = 0
KDO1 190356Z 17005KT 18/14 A2968 RMK A01 T01840142  RH  077%=      5-min Rain = 0
KDO1 190357Z 15004KT 18/14 A2968 RMK A01 T01840142  RH  076%=      5-min Rain = 0
KDO1 190358Z 13004KT 18/14 A2968 RMK A01 T01840142  RH  076%=      5-min Rain = 0
KDO1 190359Z 12003KT 18/14 A2967 RMK A01 T01840142  RH  076%=      5-min Rain = 0
KDO1 190400Z 10002KT 18/14 A2967 RMK A01 T01840141  RH  076%=      5-min Rain = 0
KDO1 190401Z 08002KT 18/14 A2967 RMK A01 T01840141  RH  076%=      5-min Rain = 0
KDO1 190402Z 06003KT 18/14 A2967 RMK A01 T01840141  RH  076%=      5-min Rain = 0
KDO1 190403Z 06002KT 18/14 A2967 RMK A01 T01840141  RH  076%=      5-min Rain = 0
KDO1 190404Z 09001KT 18/14 A2967 RMK A01 T01840140  RH  076%=      5-min Rain = 0
KDO1 190405Z 11002KT 19/14 A2967 RMK A01 T01850141  RH  076%=      5-min Rain = 0
KDO1 190406Z 11004KT 19/14 A2967 RMK A01 T01850140  RH  075%=      5-min Rain = 0
KDO1 190407Z 12006KT 19/14 A2967 RMK A01 T01850139  RH  075%=      5-min Rain = 0
KDO1 190408Z 10006KT 19/14 A2966 RMK A01 T01850139  RH  075%=      5-min Rain = 0
KDO1 190409Z 09006KT 19/14 A2966 RMK A01 T01860141  RH  075%=      5-min Rain = 0
KDO1 190410Z 09005KT 19/14 A2966 RMK A01 T01860142  RH  076%=      5-min Rain = 0
KDO1 190411Z 09006KT 19/14 A2965 RMK A01 T01860142  RH  076%=      5-min Rain = 0
KDO1 190412Z 10008KT 19/14 A2965 RMK A01 T01850142  RH  076%=      5-min Rain = 0
KDO1 190413Z 11008KT 18/14 A2964 RMK A01 T01840143  RH  077%=      5-min Rain = 0
KDO1 190414Z 12009KT 18/15 A2964 RMK A01 T01830145  RH  078%=      5-min Rain = 0
KDO1 190415Z 13008KT 18/15 A2964 RMK A01 T01810145  RH  079%=      5-min Rain = 0
KDO1 190416Z 13006KT 18/14 A2964 RMK A01 T01800143  RH  079%=      5-min Rain = 0
KDO1 190417Z 12005KT 18/14 A2964 RMK A01 T01800141  RH  078%=      5-min Rain = 0
KDO1 190418Z 11003KT 18/14 A2964 RMK A01 T01810141  RH  078%=      5-min Rain = 0
KDO1 190419Z 10004KT 18/14 A2963 RMK A01 T01810142  RH  078%=      5-min Rain = 0
KDO1 190420Z 09003KT 18/14 A2963 RMK A01 T01810141  RH  077%=      5-min Rain = 0
KDO1 190421Z 06004KT 18/14 A2962 RMK A01 T01810142  RH  077%=      5-min Rain = 0
KDO1 190422Z 05004KT 18/14 A2962 RMK A01 T01810142  RH  078%=      5-min Rain = 0
KDO1 190423Z 04004KT 18/14 A2962 RMK A01 T01810143  RH  078%=      5-min Rain = 0
KDO1 190424Z 06005KT 18/14 A2962 RMK A01 T01810141  RH  077%=      5-min Rain = 0
KDO1 190425Z 08004KT 18/14 A2962 RMK A01 T01820141  RH  077%=      5-min Rain = 0
KDO1 190426Z 09003KT 18/14 A2962 RMK A01 T01820141  RH  077%=      5-min Rain = 0
KDO1 190427Z 12002KT 18/14 A2962 RMK A01 T01820141  RH  077%=      5-min Rain = 0
KDO1 190428Z 09001KT 18/14 A2962 RMK A01 T01820141  RH  077%=      5-min Rain = 0
KDO1 190429Z 11002KT 18/14 A2962 RMK A01 T01820141  RH  077%=      5-min Rain = 0
KDO1 190430Z 10002KT 18/14 A2962 RMK A01 T01820141  RH  077%=      5-min Rain = 0
KDO1 190431Z 03002KT 18/14 A2962 RMK A01 T01820141  RH  077%=      5-min Rain = 0
KDO1 190432Z 35004KT 18/14 A2962 RMK A01 T01820142  RH  078%=      5-min Rain = 0
KDO1 190433Z 33008KT 18/14 A2962 RMK A01 T01810143  RH  079%=      5-min Rain = 0
KDO1 190434Z 35008KT 18/14 A2961 RMK A01 T01800144  RH  080%=      5-min Rain = 0
KDO1 190435Z 01007KT 18/14 A2961 RMK A01 T01790144  RH  080%=      5-min Rain = 0
KDO1 190436Z 01008KT 18/14 A2961 RMK A01 T01790143  RH  080%=      5-min Rain = 0
KDO1 190437Z 36010KT 18/14 A2961 RMK A01 T01790144  RH  080%=      5-min Rain = 0
KDO1 190438Z 36011KT 18/15 A2961 RMK A01 T01790146  RH  081%=      5-min Rain = 0
KDO1 190439Z 36011KT 18/15 A2961 RMK A01 T01770145  RH  082%=      5-min Rain = 0
KDO1 190440Z 36010KT 18/15 A2961 RMK A01 T01760145  RH  082%=      5-min Rain = 0
KDO1 190441Z 00009KT 18/14 A2961 RMK A01 T01750144  RH  082%=      5-min Rain = 0
KDO1 190442Z 00008KT 17/14 A2961 RMK A01 T01740144  RH  083%=      5-min Rain = 0
KDO1 190443Z 35008KT 17/14 A2961 RMK A01 T01740144  RH  083%=      5-min Rain = 0
KDO1 190444Z 35007KT 17/15 A2961 RMK A01 T01740145  RH  083%=      5-min Rain = 0
KDO1 190445Z 34008KT 17/15 A2962 RMK A01 T01740145  RH  083%=      5-min Rain = 0
KDO1 190446Z 34007KT 17/14 A2962 RMK A01 T01740144  RH  083%=      5-min Rain = 0
KDO1 190447Z 34006KT 17/14 A2962 RMK A01 T01740143  RH  082%=      5-min Rain = 0
KDO1 190448Z 33004KT 18/14 A2962 RMK A01 T01750143  RH  082%=      5-min Rain = 0
KDO1 190449Z 20004G11KT 18/14 A2963 RMK A01 T01750143  RH  082%=      5-min Rain = 0
KDO1 190450Z 21009KT 18/15 A2964 RMK A01 T01750145  RH  082%=      5-min Rain = 0
KDO1 190451Z 29004KT 18/14 A2964 RMK A01 T01750144  RH  082%=      5-min Rain = 0
KDO1 190452Z 35001KT 18/14 A2963 RMK A01 T01760140  RH  079%=      5-min Rain = 0
KDO1 190453Z 33001KT 18/14 A2963 RMK A01 T01780142  RH  079%=      5-min Rain = 0
KDO1 190454Z 31002KT 18/14 A2963 RMK A01 T01790143  RH  079%=      5-min Rain = 0
KDO1 190455Z 32002KT 18/14 A2963 RMK A01 T01790142  RH  079%=      5-min Rain = 0
KDO1 190456Z 31003KT 18/14 A2964 RMK A01 T01790141  RH  078%=      5-min Rain = 0
KDO1 190457Z 31006KT 18/14 A2964 RMK A01 T01790142  RH  079%=      5-min Rain = 0
KDO1 190458Z 30005KT 18/14 A2964 RMK A01 T01790143  RH  080%=      5-min Rain = 0
KDO1 190459Z 30002KT 18/14 A2964 RMK A01 T01780144  RH  080%=      5-min Rain = 0

Page generated in 0.1344 seconds.